<?xml version="1.0" encoding="UTF-8" standalone="no" ?>
<gpx xmlns="http://www.topografix.com/GPX/1/1" xmlns:xsi="http://www.w3.org/2001/XMLSchema-instance" xsi:schemaLocation="http://www.topografix.com/GPX/1/1 http://www.topografix.com/GPX/1/1/gpx.xsd" version="1.1" creator="VisuGPX - https://www.visugpx.com">
  <metadata>
    <name>rdo_2023_etape3</name>
  </metadata>
  <trk>
    <name><![CDATA[RDO2023 - Etape3-16601922]]></name>
    <extensions>
      <line xmlns="http://www.topografix.com/GPX/gpx_style/0/2">
        <color>0000FF</color>
        <width>4</width>
      </line>
    </extensions>
    <trkseg>
      <trkpt lat="49.64985" lon="1.73121">
        <ele>225</ele>
        <time>2023-05-22T13:15:02Z</time>
      </trkpt>
      <trkpt lat="49.64979" lon="1.73135">
        <ele>225</ele>
        <time>2023-05-22T13:15:04Z</time>
      </trkpt>
      <trkpt lat="49.64906" lon="1.73335">
        <ele>221</ele>
        <time>2023-05-22T13:15:30Z</time>
      </trkpt>
      <trkpt lat="49.64866" lon="1.73435">
        <ele>223</ele>
        <time>2023-05-22T13:15:44Z</time>
      </trkpt>
      <trkpt lat="49.64844" lon="1.73506">
        <ele>223</ele>
        <time>2023-05-22T13:15:53Z</time>
      </trkpt>
      <trkpt lat="49.64797" lon="1.73596">
        <ele>222</ele>
        <time>2023-05-22T13:16:06Z</time>
      </trkpt>
      <trkpt lat="49.64724" lon="1.73727">
        <ele>221</ele>
        <time>2023-05-22T13:16:26Z</time>
      </trkpt>
      <trkpt lat="49.64673" lon="1.73825">
        <ele>221</ele>
        <time>2023-05-22T13:16:41Z</time>
      </trkpt>
      <trkpt lat="49.64631" lon="1.73945">
        <ele>220</ele>
        <time>2023-05-22T13:16:56Z</time>
      </trkpt>
      <trkpt lat="49.64563" lon="1.74121">
        <ele>219</ele>
        <time>2023-05-22T13:17:20Z</time>
      </trkpt>
      <trkpt lat="49.64449" lon="1.74357">
        <ele>220</ele>
        <time>2023-05-22T13:17:54Z</time>
      </trkpt>
      <trkpt lat="49.64359" lon="1.74576">
        <ele>221</ele>
        <time>2023-05-22T13:18:24Z</time>
      </trkpt>
      <trkpt lat="49.6432" lon="1.74666">
        <ele>222</ele>
        <time>2023-05-22T13:18:36Z</time>
      </trkpt>
      <trkpt lat="49.64264" lon="1.74771">
        <ele>222</ele>
        <time>2023-05-22T13:18:52Z</time>
      </trkpt>
      <trkpt lat="49.64199" lon="1.7487">
        <ele>222</ele>
        <time>2023-05-22T13:19:08Z</time>
      </trkpt>
      <trkpt lat="49.64138" lon="1.74956">
        <ele>221</ele>
        <time>2023-05-22T13:19:23Z</time>
      </trkpt>
      <trkpt lat="49.64079" lon="1.75033">
        <ele>220</ele>
        <time>2023-05-22T13:19:37Z</time>
      </trkpt>
      <trkpt lat="49.64017" lon="1.7511">
        <ele>218</ele>
        <time>2023-05-22T13:19:51Z</time>
      </trkpt>
      <trkpt lat="49.63836" lon="1.75284">
        <ele>214</ele>
        <time>2023-05-22T13:20:29Z</time>
      </trkpt>
      <trkpt lat="49.63746" lon="1.75366">
        <ele>214</ele>
        <time>2023-05-22T13:20:47Z</time>
      </trkpt>
      <trkpt lat="49.63704" lon="1.754">
        <ele>215</ele>
        <time>2023-05-22T13:20:56Z</time>
      </trkpt>
      <trkpt lat="49.6351" lon="1.7558">
        <ele>214</ele>
        <time>2023-05-22T13:21:36Z</time>
      </trkpt>
      <trkpt lat="49.63472" lon="1.75627">
        <ele>214</ele>
        <time>2023-05-22T13:21:45Z</time>
      </trkpt>
      <trkpt lat="49.63409" lon="1.75756">
        <ele>213</ele>
        <time>2023-05-22T13:22:03Z</time>
      </trkpt>
      <trkpt lat="49.63395" lon="1.75794">
        <ele>214</ele>
        <time>2023-05-22T13:22:08Z</time>
      </trkpt>
      <trkpt lat="49.63375" lon="1.758">
        <ele>213</ele>
        <time>2023-05-22T13:22:12Z</time>
      </trkpt>
      <trkpt lat="49.63208" lon="1.75828">
        <ele>210</ele>
        <time>2023-05-22T13:22:42Z</time>
      </trkpt>
      <trkpt lat="49.63153" lon="1.7584">
        <ele>209</ele>
        <time>2023-05-22T13:22:52Z</time>
      </trkpt>
      <trkpt lat="49.63089" lon="1.75869">
        <ele>207</ele>
        <time>2023-05-22T13:23:04Z</time>
      </trkpt>
      <trkpt lat="49.63048" lon="1.75892">
        <ele>207</ele>
        <time>2023-05-22T13:23:11Z</time>
      </trkpt>
      <trkpt lat="49.62996" lon="1.75902">
        <ele>207</ele>
        <time>2023-05-22T13:23:21Z</time>
      </trkpt>
      <trkpt lat="49.6295" lon="1.75892">
        <ele>208</ele>
        <time>2023-05-22T13:23:29Z</time>
      </trkpt>
      <trkpt lat="49.6271" lon="1.75825">
        <ele>210</ele>
        <time>2023-05-22T13:24:12Z</time>
      </trkpt>
      <trkpt lat="49.62673" lon="1.75818">
        <ele>210</ele>
        <time>2023-05-22T13:24:19Z</time>
      </trkpt>
      <trkpt lat="49.6262" lon="1.75821">
        <ele>209</ele>
        <time>2023-05-22T13:24:28Z</time>
      </trkpt>
      <trkpt lat="49.62358" lon="1.75892">
        <ele>209</ele>
        <time>2023-05-22T13:25:16Z</time>
      </trkpt>
      <trkpt lat="49.62305" lon="1.75916">
        <ele>209</ele>
        <time>2023-05-22T13:25:26Z</time>
      </trkpt>
      <trkpt lat="49.62157" lon="1.7601">
        <ele>211</ele>
        <time>2023-05-22T13:25:54Z</time>
      </trkpt>
      <trkpt lat="49.62139" lon="1.76012">
        <ele>210</ele>
        <time>2023-05-22T13:25:57Z</time>
      </trkpt>
      <trkpt lat="49.62125" lon="1.76007">
        <ele>210</ele>
        <time>2023-05-22T13:26:00Z</time>
      </trkpt>
      <trkpt lat="49.62114" lon="1.75998">
        <ele>210</ele>
        <time>2023-05-22T13:26:02Z</time>
      </trkpt>
      <trkpt lat="49.62101" lon="1.75976">
        <ele>210</ele>
        <time>2023-05-22T13:26:06Z</time>
      </trkpt>
      <trkpt lat="49.61949" lon="1.75521">
        <ele>212</ele>
        <time>2023-05-22T13:27:05Z</time>
      </trkpt>
      <trkpt lat="49.61944" lon="1.75516">
        <ele>212</ele>
        <time>2023-05-22T13:27:06Z</time>
      </trkpt>
      <trkpt lat="49.61937" lon="1.75517">
        <ele>212</ele>
        <time>2023-05-22T13:27:07Z</time>
      </trkpt>
      <trkpt lat="49.61917" lon="1.75533">
        <ele>212</ele>
        <time>2023-05-22T13:27:11Z</time>
      </trkpt>
      <trkpt lat="49.61905" lon="1.75536">
        <ele>212</ele>
        <time>2023-05-22T13:27:13Z</time>
      </trkpt>
      <trkpt lat="49.61898" lon="1.75533">
        <ele>212</ele>
        <time>2023-05-22T13:27:14Z</time>
      </trkpt>
      <trkpt lat="49.61887" lon="1.75514">
        <ele>212</ele>
        <time>2023-05-22T13:27:17Z</time>
      </trkpt>
      <trkpt lat="49.61861" lon="1.75455">
        <ele>212</ele>
        <time>2023-05-22T13:27:25Z</time>
      </trkpt>
      <trkpt lat="49.61677" lon="1.75103">
        <ele>209</ele>
        <time>2023-05-22T13:28:18Z</time>
      </trkpt>
      <trkpt lat="49.61667" lon="1.75075">
        <ele>209</ele>
        <time>2023-05-22T13:28:21Z</time>
      </trkpt>
      <trkpt lat="49.61653" lon="1.75031">
        <ele>209</ele>
        <time>2023-05-22T13:28:27Z</time>
      </trkpt>
      <trkpt lat="49.6164" lon="1.75013">
        <ele>209</ele>
        <time>2023-05-22T13:28:30Z</time>
      </trkpt>
      <trkpt lat="49.6156" lon="1.74918">
        <ele>211</ele>
        <time>2023-05-22T13:28:48Z</time>
      </trkpt>
      <trkpt lat="49.61533" lon="1.74891">
        <ele>211</ele>
        <time>2023-05-22T13:28:54Z</time>
      </trkpt>
      <trkpt lat="49.61527" lon="1.74893">
        <ele>211</ele>
        <time>2023-05-22T13:28:55Z</time>
      </trkpt>
      <trkpt lat="49.6151" lon="1.74918">
        <ele>211</ele>
        <time>2023-05-22T13:28:59Z</time>
      </trkpt>
      <trkpt lat="49.61418" lon="1.75088">
        <ele>209</ele>
        <time>2023-05-22T13:29:25Z</time>
      </trkpt>
      <trkpt lat="49.6139" lon="1.75134">
        <ele>209</ele>
        <time>2023-05-22T13:29:32Z</time>
      </trkpt>
      <trkpt lat="49.61384" lon="1.7514">
        <ele>209</ele>
        <time>2023-05-22T13:29:33Z</time>
      </trkpt>
      <trkpt lat="49.61378" lon="1.7514">
        <ele>209</ele>
        <time>2023-05-22T13:29:34Z</time>
      </trkpt>
      <trkpt lat="49.61372" lon="1.75135">
        <ele>210</ele>
        <time>2023-05-22T13:29:35Z</time>
      </trkpt>
      <trkpt lat="49.61344" lon="1.7509">
        <ele>210</ele>
        <time>2023-05-22T13:29:43Z</time>
      </trkpt>
      <trkpt lat="49.61292" lon="1.75014">
        <ele>210</ele>
        <time>2023-05-22T13:29:55Z</time>
      </trkpt>
      <trkpt lat="49.61141" lon="1.74803">
        <ele>212</ele>
        <time>2023-05-22T13:30:32Z</time>
      </trkpt>
      <trkpt lat="49.61073" lon="1.747">
        <ele>212</ele>
        <time>2023-05-22T13:30:49Z</time>
      </trkpt>
      <trkpt lat="49.61038" lon="1.74655">
        <ele>212</ele>
        <time>2023-05-22T13:30:57Z</time>
      </trkpt>
      <trkpt lat="49.61026" lon="1.74648">
        <ele>212</ele>
        <time>2023-05-22T13:30:59Z</time>
      </trkpt>
      <trkpt lat="49.61011" lon="1.74649">
        <ele>212</ele>
        <time>2023-05-22T13:31:02Z</time>
      </trkpt>
      <trkpt lat="49.60891" lon="1.74803">
        <ele>211</ele>
        <time>2023-05-22T13:31:29Z</time>
      </trkpt>
      <trkpt lat="49.60874" lon="1.74819">
        <ele>210</ele>
        <time>2023-05-22T13:31:33Z</time>
      </trkpt>
      <trkpt lat="49.6086" lon="1.74825">
        <ele>210</ele>
        <time>2023-05-22T13:31:35Z</time>
      </trkpt>
      <trkpt lat="49.60844" lon="1.74824">
        <ele>210</ele>
        <time>2023-05-22T13:31:38Z</time>
      </trkpt>
      <trkpt lat="49.60824" lon="1.74811">
        <ele>209</ele>
        <time>2023-05-22T13:31:42Z</time>
      </trkpt>
      <trkpt lat="49.60718" lon="1.74717">
        <ele>206</ele>
        <time>2023-05-22T13:32:04Z</time>
      </trkpt>
      <trkpt lat="49.60651" lon="1.74661">
        <ele>204</ele>
        <time>2023-05-22T13:32:17Z</time>
      </trkpt>
      <trkpt lat="49.60545" lon="1.74582">
        <ele>206</ele>
        <time>2023-05-22T13:32:38Z</time>
      </trkpt>
      <trkpt lat="49.60447" lon="1.74524">
        <ele>206</ele>
        <time>2023-05-22T13:32:57Z</time>
      </trkpt>
      <trkpt lat="49.60129" lon="1.74393">
        <ele>204</ele>
        <time>2023-05-22T13:33:56Z</time>
      </trkpt>
      <trkpt lat="49.60083" lon="1.74369">
        <ele>205</ele>
        <time>2023-05-22T13:34:04Z</time>
      </trkpt>
      <trkpt lat="49.59746" lon="1.74155">
        <ele>204</ele>
        <time>2023-05-22T13:35:09Z</time>
      </trkpt>
      <trkpt lat="49.59701" lon="1.7413">
        <ele>203</ele>
        <time>2023-05-22T13:35:18Z</time>
      </trkpt>
      <trkpt lat="49.59475" lon="1.74028">
        <ele>198</ele>
        <time>2023-05-22T13:36:00Z</time>
      </trkpt>
      <trkpt lat="49.59462" lon="1.74018">
        <ele>197</ele>
        <time>2023-05-22T13:36:02Z</time>
      </trkpt>
      <trkpt lat="49.5945" lon="1.74002">
        <ele>196</ele>
        <time>2023-05-22T13:36:05Z</time>
      </trkpt>
      <trkpt lat="49.59444" lon="1.73983">
        <ele>195</ele>
        <time>2023-05-22T13:36:07Z</time>
      </trkpt>
      <trkpt lat="49.59444" lon="1.73957">
        <ele>195</ele>
        <time>2023-05-22T13:36:10Z</time>
      </trkpt>
      <trkpt lat="49.59458" lon="1.73793">
        <ele>192</ele>
        <time>2023-05-22T13:36:29Z</time>
      </trkpt>
      <trkpt lat="49.59455" lon="1.73774">
        <ele>192</ele>
        <time>2023-05-22T13:36:32Z</time>
      </trkpt>
      <trkpt lat="49.59447" lon="1.73757">
        <ele>190</ele>
        <time>2023-05-22T13:36:34Z</time>
      </trkpt>
      <trkpt lat="49.59435" lon="1.73751">
        <ele>188</ele>
        <time>2023-05-22T13:36:36Z</time>
      </trkpt>
      <trkpt lat="49.59423" lon="1.73754">
        <ele>186</ele>
        <time>2023-05-22T13:36:39Z</time>
      </trkpt>
      <trkpt lat="49.59413" lon="1.73767">
        <ele>185</ele>
        <time>2023-05-22T13:36:41Z</time>
      </trkpt>
      <trkpt lat="49.59326" lon="1.73991">
        <ele>180</ele>
        <time>2023-05-22T13:37:11Z</time>
      </trkpt>
      <trkpt lat="49.59323" lon="1.73995">
        <ele>180</ele>
        <time>2023-05-22T13:37:12Z</time>
      </trkpt>
      <trkpt lat="49.5932" lon="1.73995">
        <ele>179</ele>
        <time>2023-05-22T13:37:12Z</time>
      </trkpt>
      <trkpt lat="49.59306" lon="1.74022">
        <ele>177</ele>
        <time>2023-05-22T13:37:16Z</time>
      </trkpt>
      <trkpt lat="49.59244" lon="1.74114">
        <ele>171</ele>
        <time>2023-05-22T13:37:32Z</time>
      </trkpt>
      <trkpt lat="49.59181" lon="1.74237">
        <ele>169</ele>
        <time>2023-05-22T13:37:50Z</time>
      </trkpt>
      <trkpt lat="49.59162" lon="1.74274">
        <ele>168</ele>
        <time>2023-05-22T13:37:55Z</time>
      </trkpt>
      <trkpt lat="49.59145" lon="1.74297">
        <ele>167</ele>
        <time>2023-05-22T13:37:59Z</time>
      </trkpt>
      <trkpt lat="49.5912" lon="1.74321">
        <ele>166</ele>
        <time>2023-05-22T13:38:04Z</time>
      </trkpt>
      <trkpt lat="49.59107" lon="1.7434">
        <ele>166</ele>
        <time>2023-05-22T13:38:08Z</time>
      </trkpt>
      <trkpt lat="49.59092" lon="1.74369">
        <ele>166</ele>
        <time>2023-05-22T13:38:12Z</time>
      </trkpt>
      <trkpt lat="49.59076" lon="1.74408">
        <ele>166</ele>
        <time>2023-05-22T13:38:17Z</time>
      </trkpt>
      <trkpt lat="49.59065" lon="1.74442">
        <ele>165</ele>
        <time>2023-05-22T13:38:21Z</time>
      </trkpt>
      <trkpt lat="49.59051" lon="1.74495">
        <ele>163</ele>
        <time>2023-05-22T13:38:28Z</time>
      </trkpt>
      <trkpt lat="49.59048" lon="1.74531">
        <ele>162</ele>
        <time>2023-05-22T13:38:32Z</time>
      </trkpt>
      <trkpt lat="49.59047" lon="1.74572">
        <ele>161</ele>
        <time>2023-05-22T13:38:37Z</time>
      </trkpt>
      <trkpt lat="49.59049" lon="1.74675">
        <ele>160</ele>
        <time>2023-05-22T13:38:49Z</time>
      </trkpt>
      <trkpt lat="49.59043" lon="1.74694">
        <ele>159</ele>
        <time>2023-05-22T13:38:51Z</time>
      </trkpt>
      <trkpt lat="49.59023" lon="1.74714">
        <ele>158</ele>
        <time>2023-05-22T13:38:56Z</time>
      </trkpt>
      <trkpt lat="49.59002" lon="1.74717">
        <ele>157</ele>
        <time>2023-05-22T13:38:59Z</time>
      </trkpt>
      <trkpt lat="49.58903" lon="1.74675">
        <ele>152</ele>
        <time>2023-05-22T13:39:18Z</time>
      </trkpt>
      <trkpt lat="49.58724" lon="1.74611">
        <ele>147</ele>
        <time>2023-05-22T13:39:50Z</time>
      </trkpt>
      <trkpt lat="49.58685" lon="1.74599">
        <ele>147</ele>
        <time>2023-05-22T13:39:57Z</time>
      </trkpt>
      <trkpt lat="49.58667" lon="1.74598">
        <ele>146</ele>
        <time>2023-05-22T13:40:01Z</time>
      </trkpt>
      <trkpt lat="49.58652" lon="1.7461">
        <ele>147</ele>
        <time>2023-05-22T13:40:04Z</time>
      </trkpt>
      <trkpt lat="49.58463" lon="1.7493">
        <ele>147</ele>
        <time>2023-05-22T13:40:54Z</time>
      </trkpt>
      <trkpt lat="49.58453" lon="1.74948">
        <ele>147</ele>
        <time>2023-05-22T13:40:56Z</time>
      </trkpt>
      <trkpt lat="49.58367" lon="1.75095">
        <ele>148</ele>
        <time>2023-05-22T13:41:19Z</time>
      </trkpt>
      <trkpt lat="49.58346" lon="1.75147">
        <ele>148</ele>
        <time>2023-05-22T13:41:26Z</time>
      </trkpt>
      <trkpt lat="49.58332" lon="1.75199">
        <ele>148</ele>
        <time>2023-05-22T13:41:33Z</time>
      </trkpt>
      <trkpt lat="49.58299" lon="1.75405">
        <ele>146</ele>
        <time>2023-05-22T13:41:57Z</time>
      </trkpt>
      <trkpt lat="49.58285" lon="1.75451">
        <ele>146</ele>
        <time>2023-05-22T13:42:03Z</time>
      </trkpt>
      <trkpt lat="49.5827" lon="1.75486">
        <ele>146</ele>
        <time>2023-05-22T13:42:08Z</time>
      </trkpt>
      <trkpt lat="49.58203" lon="1.75614">
        <ele>146</ele>
        <time>2023-05-22T13:42:27Z</time>
      </trkpt>
      <trkpt lat="49.5818" lon="1.75647">
        <ele>145</ele>
        <time>2023-05-22T13:42:32Z</time>
      </trkpt>
      <trkpt lat="49.58144" lon="1.75678">
        <ele>143</ele>
        <time>2023-05-22T13:42:40Z</time>
      </trkpt>
      <trkpt lat="49.58113" lon="1.75692">
        <ele>142</ele>
        <time>2023-05-22T13:42:45Z</time>
      </trkpt>
      <trkpt lat="49.58018" lon="1.75721">
        <ele>142</ele>
        <time>2023-05-22T13:43:03Z</time>
      </trkpt>
      <trkpt lat="49.57998" lon="1.75732">
        <ele>141</ele>
        <time>2023-05-22T13:43:06Z</time>
      </trkpt>
      <trkpt lat="49.57927" lon="1.75788">
        <ele>143</ele>
        <time>2023-05-22T13:43:21Z</time>
      </trkpt>
      <trkpt lat="49.57885" lon="1.75832">
        <ele>144</ele>
        <time>2023-05-22T13:43:30Z</time>
      </trkpt>
      <trkpt lat="49.57789" lon="1.7598">
        <ele>147</ele>
        <time>2023-05-22T13:43:54Z</time>
      </trkpt>
      <trkpt lat="49.57725" lon="1.76063">
        <ele>147</ele>
        <time>2023-05-22T13:44:09Z</time>
      </trkpt>
      <trkpt lat="49.57616" lon="1.76169">
        <ele>147</ele>
        <time>2023-05-22T13:44:32Z</time>
      </trkpt>
      <trkpt lat="49.57393" lon="1.76399">
        <ele>147</ele>
        <time>2023-05-22T13:45:19Z</time>
      </trkpt>
      <trkpt lat="49.57094" lon="1.76683">
        <ele>142</ele>
        <time>2023-05-22T13:46:22Z</time>
      </trkpt>
      <trkpt lat="49.56777" lon="1.77018">
        <ele>136</ele>
        <time>2023-05-22T13:47:30Z</time>
      </trkpt>
      <trkpt lat="49.56752" lon="1.77046">
        <ele>136</ele>
        <time>2023-05-22T13:47:36Z</time>
      </trkpt>
      <trkpt lat="49.56728" lon="1.77085">
        <ele>137</ele>
        <time>2023-05-22T13:47:42Z</time>
      </trkpt>
      <trkpt lat="49.56706" lon="1.77151">
        <ele>138</ele>
        <time>2023-05-22T13:47:51Z</time>
      </trkpt>
      <trkpt lat="49.56694" lon="1.77231">
        <ele>139</ele>
        <time>2023-05-22T13:48:00Z</time>
      </trkpt>
      <trkpt lat="49.56695" lon="1.77242">
        <ele>139</ele>
        <time>2023-05-22T13:48:01Z</time>
      </trkpt>
      <trkpt lat="49.56696" lon="1.7727">
        <ele>138</ele>
        <time>2023-05-22T13:48:05Z</time>
      </trkpt>
      <trkpt lat="49.56721" lon="1.77551">
        <ele>135</ele>
        <time>2023-05-22T13:48:37Z</time>
      </trkpt>
      <trkpt lat="49.56717" lon="1.77619">
        <ele>136</ele>
        <time>2023-05-22T13:48:45Z</time>
      </trkpt>
      <trkpt lat="49.56707" lon="1.77667">
        <ele>137</ele>
        <time>2023-05-22T13:48:51Z</time>
      </trkpt>
      <trkpt lat="49.56689" lon="1.77715">
        <ele>137</ele>
        <time>2023-05-22T13:48:57Z</time>
      </trkpt>
      <trkpt lat="49.56667" lon="1.77761">
        <ele>136</ele>
        <time>2023-05-22T13:49:04Z</time>
      </trkpt>
      <trkpt lat="49.56635" lon="1.778">
        <ele>137</ele>
        <time>2023-05-22T13:49:11Z</time>
      </trkpt>
      <trkpt lat="49.56524" lon="1.77899">
        <ele>135</ele>
        <time>2023-05-22T13:49:34Z</time>
      </trkpt>
      <trkpt lat="49.56464" lon="1.77947">
        <ele>136</ele>
        <time>2023-05-22T13:49:46Z</time>
      </trkpt>
      <trkpt lat="49.56449" lon="1.77953">
        <ele>136</ele>
        <time>2023-05-22T13:49:49Z</time>
      </trkpt>
      <trkpt lat="49.56353" lon="1.77982">
        <ele>136</ele>
        <time>2023-05-22T13:50:06Z</time>
      </trkpt>
      <trkpt lat="49.56326" lon="1.77995">
        <ele>135</ele>
        <time>2023-05-22T13:50:11Z</time>
      </trkpt>
      <trkpt lat="49.563" lon="1.78014">
        <ele>135</ele>
        <time>2023-05-22T13:50:16Z</time>
      </trkpt>
      <trkpt lat="49.5621" lon="1.78096">
        <ele>135</ele>
        <time>2023-05-22T13:50:35Z</time>
      </trkpt>
      <trkpt lat="49.56144" lon="1.78144">
        <ele>133</ele>
        <time>2023-05-22T13:50:48Z</time>
      </trkpt>
      <trkpt lat="49.56133" lon="1.78151">
        <ele>133</ele>
        <time>2023-05-22T13:50:50Z</time>
      </trkpt>
      <trkpt lat="49.56056" lon="1.7819">
        <ele>132</ele>
        <time>2023-05-22T13:51:04Z</time>
      </trkpt>
      <trkpt lat="49.55998" lon="1.78223">
        <ele>132</ele>
        <time>2023-05-22T13:51:15Z</time>
      </trkpt>
      <trkpt lat="49.5597" lon="1.78244">
        <ele>132</ele>
        <time>2023-05-22T13:51:21Z</time>
      </trkpt>
      <trkpt lat="49.55943" lon="1.78268">
        <ele>132</ele>
        <time>2023-05-22T13:51:27Z</time>
      </trkpt>
      <trkpt lat="49.55914" lon="1.78297">
        <ele>132</ele>
        <time>2023-05-22T13:51:33Z</time>
      </trkpt>
      <trkpt lat="49.55891" lon="1.78325">
        <ele>132</ele>
        <time>2023-05-22T13:51:38Z</time>
      </trkpt>
      <trkpt lat="49.55673" lon="1.78598">
        <ele>132</ele>
        <time>2023-05-22T13:52:28Z</time>
      </trkpt>
      <trkpt lat="49.5556" lon="1.78796">
        <ele>133</ele>
        <time>2023-05-22T13:52:58Z</time>
      </trkpt>
      <trkpt lat="49.55537" lon="1.78851">
        <ele>132</ele>
        <time>2023-05-22T13:53:06Z</time>
      </trkpt>
      <trkpt lat="49.55508" lon="1.78958">
        <ele>130</ele>
        <time>2023-05-22T13:53:19Z</time>
      </trkpt>
      <trkpt lat="49.55484" lon="1.79037">
        <ele>130</ele>
        <time>2023-05-22T13:53:29Z</time>
      </trkpt>
      <trkpt lat="49.55439" lon="1.79129">
        <ele>131</ele>
        <time>2023-05-22T13:53:43Z</time>
      </trkpt>
      <trkpt lat="49.55419" lon="1.79183">
        <ele>131</ele>
        <time>2023-05-22T13:53:50Z</time>
      </trkpt>
      <trkpt lat="49.55394" lon="1.79267">
        <ele>133</ele>
        <time>2023-05-22T13:54:01Z</time>
      </trkpt>
      <trkpt lat="49.55338" lon="1.79496">
        <ele>136</ele>
        <time>2023-05-22T13:54:29Z</time>
      </trkpt>
      <trkpt lat="49.55289" lon="1.79659">
        <ele>131</ele>
        <time>2023-05-22T13:54:49Z</time>
      </trkpt>
      <trkpt lat="49.55265" lon="1.79722">
        <ele>130</ele>
        <time>2023-05-22T13:54:58Z</time>
      </trkpt>
      <trkpt lat="49.55244" lon="1.79761">
        <ele>130</ele>
        <time>2023-05-22T13:55:04Z</time>
      </trkpt>
      <trkpt lat="49.55219" lon="1.79797">
        <ele>130</ele>
        <time>2023-05-22T13:55:10Z</time>
      </trkpt>
      <trkpt lat="49.55193" lon="1.79828">
        <ele>129</ele>
        <time>2023-05-22T13:55:16Z</time>
      </trkpt>
      <trkpt lat="49.55121" lon="1.79895">
        <ele>127</ele>
        <time>2023-05-22T13:55:31Z</time>
      </trkpt>
      <trkpt lat="49.55083" lon="1.79933">
        <ele>127</ele>
        <time>2023-05-22T13:55:39Z</time>
      </trkpt>
      <trkpt lat="49.55055" lon="1.79968">
        <ele>128</ele>
        <time>2023-05-22T13:55:45Z</time>
      </trkpt>
      <trkpt lat="49.55028" lon="1.80013">
        <ele>129</ele>
        <time>2023-05-22T13:55:52Z</time>
      </trkpt>
      <trkpt lat="49.55005" lon="1.8007">
        <ele>129</ele>
        <time>2023-05-22T13:56:00Z</time>
      </trkpt>
      <trkpt lat="49.54928" lon="1.80293">
        <ele>131</ele>
        <time>2023-05-22T13:56:29Z</time>
      </trkpt>
      <trkpt lat="49.54907" lon="1.80361">
        <ele>131</ele>
        <time>2023-05-22T13:56:38Z</time>
      </trkpt>
      <trkpt lat="49.54897" lon="1.8041">
        <ele>130</ele>
        <time>2023-05-22T13:56:44Z</time>
      </trkpt>
      <trkpt lat="49.54889" lon="1.80478">
        <ele>130</ele>
        <time>2023-05-22T13:56:52Z</time>
      </trkpt>
      <trkpt lat="49.54881" lon="1.8065">
        <ele>126</ele>
        <time>2023-05-22T13:57:12Z</time>
      </trkpt>
      <trkpt lat="49.54882" lon="1.807">
        <ele>126</ele>
        <time>2023-05-22T13:57:17Z</time>
      </trkpt>
      <trkpt lat="49.54887" lon="1.80749">
        <ele>125</ele>
        <time>2023-05-22T13:57:23Z</time>
      </trkpt>
      <trkpt lat="49.54894" lon="1.80785">
        <ele>125</ele>
        <time>2023-05-22T13:57:27Z</time>
      </trkpt>
      <trkpt lat="49.54906" lon="1.8083">
        <ele>123</ele>
        <time>2023-05-22T13:57:33Z</time>
      </trkpt>
      <trkpt lat="49.54947" lon="1.80951">
        <ele>123</ele>
        <time>2023-05-22T13:57:49Z</time>
      </trkpt>
      <trkpt lat="49.54959" lon="1.80996">
        <ele>123</ele>
        <time>2023-05-22T13:57:54Z</time>
      </trkpt>
      <trkpt lat="49.54969" lon="1.81043">
        <ele>123</ele>
        <time>2023-05-22T13:58:00Z</time>
      </trkpt>
      <trkpt lat="49.54976" lon="1.81111">
        <ele>123</ele>
        <time>2023-05-22T13:58:08Z</time>
      </trkpt>
      <trkpt lat="49.54988" lon="1.81367">
        <ele>123</ele>
        <time>2023-05-22T13:58:38Z</time>
      </trkpt>
      <trkpt lat="49.54989" lon="1.81431">
        <ele>123</ele>
        <time>2023-05-22T13:58:45Z</time>
      </trkpt>
      <trkpt lat="49.54984" lon="1.81504">
        <ele>123</ele>
        <time>2023-05-22T13:58:54Z</time>
      </trkpt>
      <trkpt lat="49.54962" lon="1.81609">
        <ele>124</ele>
        <time>2023-05-22T13:59:06Z</time>
      </trkpt>
      <trkpt lat="49.54898" lon="1.81595">
        <ele>125</ele>
        <time>2023-05-22T13:59:18Z</time>
      </trkpt>
      <trkpt lat="49.54848" lon="1.81584">
        <ele>127</ele>
        <time>2023-05-22T13:59:27Z</time>
      </trkpt>
      <trkpt lat="49.548" lon="1.81581">
        <ele>128</ele>
        <time>2023-05-22T13:59:35Z</time>
      </trkpt>
      <trkpt lat="49.54676" lon="1.81611">
        <ele>133</ele>
        <time>2023-05-22T13:59:58Z</time>
      </trkpt>
      <trkpt lat="49.54624" lon="1.8164">
        <ele>136</ele>
        <time>2023-05-22T14:00:08Z</time>
      </trkpt>
      <trkpt lat="49.54517" lon="1.81733">
        <ele>139</ele>
        <time>2023-05-22T14:00:29Z</time>
      </trkpt>
      <trkpt lat="49.54475" lon="1.81786">
        <ele>142</ele>
        <time>2023-05-22T14:00:39Z</time>
      </trkpt>
      <trkpt lat="49.54401" lon="1.8191">
        <ele>145</ele>
        <time>2023-05-22T14:00:59Z</time>
      </trkpt>
      <trkpt lat="49.54366" lon="1.81982">
        <ele>149</ele>
        <time>2023-05-22T14:01:09Z</time>
      </trkpt>
      <trkpt lat="49.5434" lon="1.82027">
        <ele>149</ele>
        <time>2023-05-22T14:01:16Z</time>
      </trkpt>
      <trkpt lat="49.5432" lon="1.82048">
        <ele>150</ele>
        <time>2023-05-22T14:01:20Z</time>
      </trkpt>
      <trkpt lat="49.54308" lon="1.82059">
        <ele>151</ele>
        <time>2023-05-22T14:01:23Z</time>
      </trkpt>
      <trkpt lat="49.54282" lon="1.82069">
        <ele>150</ele>
        <time>2023-05-22T14:01:27Z</time>
      </trkpt>
      <trkpt lat="49.54221" lon="1.82087">
        <ele>150</ele>
        <time>2023-05-22T14:01:38Z</time>
      </trkpt>
      <trkpt lat="49.54198" lon="1.82096">
        <ele>151</ele>
        <time>2023-05-22T14:01:43Z</time>
      </trkpt>
      <trkpt lat="49.54166" lon="1.82122">
        <ele>155</ele>
        <time>2023-05-22T14:01:49Z</time>
      </trkpt>
      <trkpt lat="49.54116" lon="1.82177">
        <ele>159</ele>
        <time>2023-05-22T14:02:00Z</time>
      </trkpt>
      <trkpt lat="49.54102" lon="1.8219">
        <ele>159</ele>
        <time>2023-05-22T14:02:03Z</time>
      </trkpt>
      <trkpt lat="49.54086" lon="1.822">
        <ele>159</ele>
        <time>2023-05-22T14:02:06Z</time>
      </trkpt>
      <trkpt lat="49.54072" lon="1.82182">
        <ele>156</ele>
        <time>2023-05-22T14:02:09Z</time>
      </trkpt>
      <trkpt lat="49.54065" lon="1.82155">
        <ele>154</ele>
        <time>2023-05-22T14:02:13Z</time>
      </trkpt>
      <trkpt lat="49.54056" lon="1.82105">
        <ele>151</ele>
        <time>2023-05-22T14:02:19Z</time>
      </trkpt>
      <trkpt lat="49.54027" lon="1.82131">
        <ele>154</ele>
        <time>2023-05-22T14:02:25Z</time>
      </trkpt>
      <trkpt lat="49.54007" lon="1.82139">
        <ele>155</ele>
        <time>2023-05-22T14:02:28Z</time>
      </trkpt>
      <trkpt lat="49.53982" lon="1.82136">
        <ele>157</ele>
        <time>2023-05-22T14:02:33Z</time>
      </trkpt>
      <trkpt lat="49.53945" lon="1.82119">
        <ele>159</ele>
        <time>2023-05-22T14:02:40Z</time>
      </trkpt>
      <trkpt lat="49.53914" lon="1.82096">
        <ele>160</ele>
        <time>2023-05-22T14:02:46Z</time>
      </trkpt>
      <trkpt lat="49.53886" lon="1.82102">
        <ele>163</ele>
        <time>2023-05-22T14:02:51Z</time>
      </trkpt>
      <trkpt lat="49.53805" lon="1.82187">
        <ele>172</ele>
        <time>2023-05-22T14:03:08Z</time>
      </trkpt>
      <trkpt lat="49.53773" lon="1.82212">
        <ele>175</ele>
        <time>2023-05-22T14:03:15Z</time>
      </trkpt>
      <trkpt lat="49.53733" lon="1.8225">
        <ele>179</ele>
        <time>2023-05-22T14:03:23Z</time>
      </trkpt>
      <trkpt lat="49.5372" lon="1.82269">
        <ele>180</ele>
        <time>2023-05-22T14:03:26Z</time>
      </trkpt>
      <trkpt lat="49.53704" lon="1.82253">
        <ele>182</ele>
        <time>2023-05-22T14:03:30Z</time>
      </trkpt>
      <trkpt lat="49.53671" lon="1.82238">
        <ele>186</ele>
        <time>2023-05-22T14:03:36Z</time>
      </trkpt>
      <trkpt lat="49.5365" lon="1.82215">
        <ele>187</ele>
        <time>2023-05-22T14:03:40Z</time>
      </trkpt>
      <trkpt lat="49.53608" lon="1.82192">
        <ele>189</ele>
        <time>2023-05-22T14:03:48Z</time>
      </trkpt>
      <trkpt lat="49.53571" lon="1.82164">
        <ele>190</ele>
        <time>2023-05-22T14:03:56Z</time>
      </trkpt>
      <trkpt lat="49.53537" lon="1.82131">
        <ele>190</ele>
        <time>2023-05-22T14:04:03Z</time>
      </trkpt>
      <trkpt lat="49.53504" lon="1.82108">
        <ele>191</ele>
        <time>2023-05-22T14:04:09Z</time>
      </trkpt>
      <trkpt lat="49.53478" lon="1.82083">
        <ele>192</ele>
        <time>2023-05-22T14:04:15Z</time>
      </trkpt>
      <trkpt lat="49.53463" lon="1.82062">
        <ele>192</ele>
        <time>2023-05-22T14:04:18Z</time>
      </trkpt>
      <trkpt lat="49.53433" lon="1.8203">
        <ele>193</ele>
        <time>2023-05-22T14:04:25Z</time>
      </trkpt>
      <trkpt lat="49.53403" lon="1.82007">
        <ele>195</ele>
        <time>2023-05-22T14:04:31Z</time>
      </trkpt>
      <trkpt lat="49.53381" lon="1.81999">
        <ele>195</ele>
        <time>2023-05-22T14:04:35Z</time>
      </trkpt>
      <trkpt lat="49.53356" lon="1.82004">
        <ele>196</ele>
        <time>2023-05-22T14:04:39Z</time>
      </trkpt>
      <trkpt lat="49.53344" lon="1.82013">
        <ele>196</ele>
        <time>2023-05-22T14:04:42Z</time>
      </trkpt>
      <trkpt lat="49.53371" lon="1.82101">
        <ele>194</ele>
        <time>2023-05-22T14:04:53Z</time>
      </trkpt>
      <trkpt lat="49.5343" lon="1.82301">
        <ele>191</ele>
        <time>2023-05-22T14:05:18Z</time>
      </trkpt>
      <trkpt lat="49.53447" lon="1.82412">
        <ele>192</ele>
        <time>2023-05-22T14:05:31Z</time>
      </trkpt>
      <trkpt lat="49.53462" lon="1.82461">
        <ele>191</ele>
        <time>2023-05-22T14:05:38Z</time>
      </trkpt>
      <trkpt lat="49.53477" lon="1.82495">
        <ele>191</ele>
        <time>2023-05-22T14:05:42Z</time>
      </trkpt>
      <trkpt lat="49.53506" lon="1.82548">
        <ele>190</ele>
        <time>2023-05-22T14:05:50Z</time>
      </trkpt>
      <trkpt lat="49.5357" lon="1.82655">
        <ele>183</ele>
        <time>2023-05-22T14:06:07Z</time>
      </trkpt>
      <trkpt lat="49.53598" lon="1.82692">
        <ele>182</ele>
        <time>2023-05-22T14:06:14Z</time>
      </trkpt>
      <trkpt lat="49.53636" lon="1.82749">
        <ele>183</ele>
        <time>2023-05-22T14:06:23Z</time>
      </trkpt>
      <trkpt lat="49.53685" lon="1.82794">
        <ele>190</ele>
        <time>2023-05-22T14:06:33Z</time>
      </trkpt>
      <trkpt lat="49.53705" lon="1.82826">
        <ele>193</ele>
        <time>2023-05-22T14:06:38Z</time>
      </trkpt>
      <trkpt lat="49.53735" lon="1.82939">
        <ele>199</ele>
        <time>2023-05-22T14:06:52Z</time>
      </trkpt>
      <trkpt lat="49.53766" lon="1.83087">
        <ele>208</ele>
        <time>2023-05-22T14:07:10Z</time>
      </trkpt>
      <trkpt lat="49.53825" lon="1.83257">
        <ele>209</ele>
        <time>2023-05-22T14:07:33Z</time>
      </trkpt>
      <trkpt lat="49.53853" lon="1.83292">
        <ele>209</ele>
        <time>2023-05-22T14:07:39Z</time>
      </trkpt>
      <trkpt lat="49.54145" lon="1.83511">
        <ele>190</ele>
        <time>2023-05-22T14:08:37Z</time>
      </trkpt>
      <trkpt lat="49.54167" lon="1.83537">
        <ele>188</ele>
        <time>2023-05-22T14:08:42Z</time>
      </trkpt>
      <trkpt lat="49.54191" lon="1.83583">
        <ele>187</ele>
        <time>2023-05-22T14:08:49Z</time>
      </trkpt>
      <trkpt lat="49.54195" lon="1.83648">
        <ele>186</ele>
        <time>2023-05-22T14:08:56Z</time>
      </trkpt>
      <trkpt lat="49.54191" lon="1.8373">
        <ele>184</ele>
        <time>2023-05-22T14:09:06Z</time>
      </trkpt>
      <trkpt lat="49.5416" lon="1.83894">
        <ele>179</ele>
        <time>2023-05-22T14:09:25Z</time>
      </trkpt>
      <trkpt lat="49.54048" lon="1.84367">
        <ele>168</ele>
        <time>2023-05-22T14:10:24Z</time>
      </trkpt>
      <trkpt lat="49.54042" lon="1.84418">
        <ele>167</ele>
        <time>2023-05-22T14:10:30Z</time>
      </trkpt>
      <trkpt lat="49.54055" lon="1.84481">
        <ele>166</ele>
        <time>2023-05-22T14:10:37Z</time>
      </trkpt>
      <trkpt lat="49.54176" lon="1.84745">
        <ele>149</ele>
        <time>2023-05-22T14:11:14Z</time>
      </trkpt>
      <trkpt lat="49.54336" lon="1.85071">
        <ele>131</ele>
        <time>2023-05-22T14:12:02Z</time>
      </trkpt>
      <trkpt lat="49.54352" lon="1.85097">
        <ele>128</ele>
        <time>2023-05-22T14:12:06Z</time>
      </trkpt>
      <trkpt lat="49.54367" lon="1.8511">
        <ele>125</ele>
        <time>2023-05-22T14:12:09Z</time>
      </trkpt>
      <trkpt lat="49.54382" lon="1.85118">
        <ele>123</ele>
        <time>2023-05-22T14:12:12Z</time>
      </trkpt>
      <trkpt lat="49.54399" lon="1.85119">
        <ele>120</ele>
        <time>2023-05-22T14:12:15Z</time>
      </trkpt>
      <trkpt lat="49.54414" lon="1.85117">
        <ele>118</ele>
        <time>2023-05-22T14:12:17Z</time>
      </trkpt>
      <trkpt lat="49.5449" lon="1.85085">
        <ele>116</ele>
        <time>2023-05-22T14:12:31Z</time>
      </trkpt>
      <trkpt lat="49.54538" lon="1.85071">
        <ele>115</ele>
        <time>2023-05-22T14:12:40Z</time>
      </trkpt>
      <trkpt lat="49.54566" lon="1.85068">
        <ele>114</ele>
        <time>2023-05-22T14:12:45Z</time>
      </trkpt>
      <trkpt lat="49.54585" lon="1.8507">
        <ele>113</ele>
        <time>2023-05-22T14:12:48Z</time>
      </trkpt>
      <trkpt lat="49.54636" lon="1.85087">
        <ele>112</ele>
        <time>2023-05-22T14:12:58Z</time>
      </trkpt>
      <trkpt lat="49.54656" lon="1.85097">
        <ele>111</ele>
        <time>2023-05-22T14:13:01Z</time>
      </trkpt>
      <trkpt lat="49.5469" lon="1.85124">
        <ele>112</ele>
        <time>2023-05-22T14:13:08Z</time>
      </trkpt>
      <trkpt lat="49.54703" lon="1.85138">
        <ele>112</ele>
        <time>2023-05-22T14:13:11Z</time>
      </trkpt>
      <trkpt lat="49.54713" lon="1.85148">
        <ele>112</ele>
        <time>2023-05-22T14:13:13Z</time>
      </trkpt>
      <trkpt lat="49.5474" lon="1.85175">
        <ele>112</ele>
        <time>2023-05-22T14:13:19Z</time>
      </trkpt>
      <trkpt lat="49.54779" lon="1.85237">
        <ele>113</ele>
        <time>2023-05-22T14:13:29Z</time>
      </trkpt>
      <trkpt lat="49.54871" lon="1.85405">
        <ele>116</ele>
        <time>2023-05-22T14:13:54Z</time>
      </trkpt>
      <trkpt lat="49.54884" lon="1.85395">
        <ele>116</ele>
        <time>2023-05-22T14:13:57Z</time>
      </trkpt>
      <trkpt lat="49.5492" lon="1.85356">
        <ele>115</ele>
        <time>2023-05-22T14:14:05Z</time>
      </trkpt>
      <trkpt lat="49.54984" lon="1.85445">
        <ele>117</ele>
        <time>2023-05-22T14:14:20Z</time>
      </trkpt>
      <trkpt lat="49.55024" lon="1.8548">
        <ele>118</ele>
        <time>2023-05-22T14:14:28Z</time>
      </trkpt>
      <trkpt lat="49.55109" lon="1.85549">
        <ele>123</ele>
        <time>2023-05-22T14:14:45Z</time>
      </trkpt>
      <trkpt lat="49.55129" lon="1.85563">
        <ele>124</ele>
        <time>2023-05-22T14:14:49Z</time>
      </trkpt>
      <trkpt lat="49.55138" lon="1.85566">
        <ele>124</ele>
        <time>2023-05-22T14:14:51Z</time>
      </trkpt>
      <trkpt lat="49.55157" lon="1.85561">
        <ele>124</ele>
        <time>2023-05-22T14:14:54Z</time>
      </trkpt>
      <trkpt lat="49.55234" lon="1.85527">
        <ele>122</ele>
        <time>2023-05-22T14:15:09Z</time>
      </trkpt>
      <trkpt lat="49.55324" lon="1.85483">
        <ele>123</ele>
        <time>2023-05-22T14:15:25Z</time>
      </trkpt>
      <trkpt lat="49.55349" lon="1.85478">
        <ele>123</ele>
        <time>2023-05-22T14:15:30Z</time>
      </trkpt>
      <trkpt lat="49.55378" lon="1.8548">
        <ele>124</ele>
        <time>2023-05-22T14:15:35Z</time>
      </trkpt>
      <trkpt lat="49.55457" lon="1.85494">
        <ele>126</ele>
        <time>2023-05-22T14:15:49Z</time>
      </trkpt>
      <trkpt lat="49.55489" lon="1.85506">
        <ele>127</ele>
        <time>2023-05-22T14:15:55Z</time>
      </trkpt>
      <trkpt lat="49.55561" lon="1.85555">
        <ele>129</ele>
        <time>2023-05-22T14:16:09Z</time>
      </trkpt>
      <trkpt lat="49.5558" lon="1.85559">
        <ele>128</ele>
        <time>2023-05-22T14:16:12Z</time>
      </trkpt>
      <trkpt lat="49.55599" lon="1.85559">
        <ele>128</ele>
        <time>2023-05-22T14:16:16Z</time>
      </trkpt>
      <trkpt lat="49.55624" lon="1.85548">
        <ele>127</ele>
        <time>2023-05-22T14:16:20Z</time>
      </trkpt>
      <trkpt lat="49.55763" lon="1.85452">
        <ele>123</ele>
        <time>2023-05-22T14:16:48Z</time>
      </trkpt>
      <trkpt lat="49.55852" lon="1.85364">
        <ele>121</ele>
        <time>2023-05-22T14:17:06Z</time>
      </trkpt>
      <trkpt lat="49.55872" lon="1.85357">
        <ele>121</ele>
        <time>2023-05-22T14:17:10Z</time>
      </trkpt>
      <trkpt lat="49.55891" lon="1.8536">
        <ele>121</ele>
        <time>2023-05-22T14:17:13Z</time>
      </trkpt>
      <trkpt lat="49.55909" lon="1.85367">
        <ele>121</ele>
        <time>2023-05-22T14:17:17Z</time>
      </trkpt>
      <trkpt lat="49.55971" lon="1.85419">
        <ele>121</ele>
        <time>2023-05-22T14:17:29Z</time>
      </trkpt>
      <trkpt lat="49.56004" lon="1.8544">
        <ele>122</ele>
        <time>2023-05-22T14:17:36Z</time>
      </trkpt>
      <trkpt lat="49.5618" lon="1.85477">
        <ele>121</ele>
        <time>2023-05-22T14:18:07Z</time>
      </trkpt>
      <trkpt lat="49.56266" lon="1.85492">
        <ele>122</ele>
        <time>2023-05-22T14:18:23Z</time>
      </trkpt>
      <trkpt lat="49.5641" lon="1.85575">
        <ele>121</ele>
        <time>2023-05-22T14:18:50Z</time>
      </trkpt>
      <trkpt lat="49.56441" lon="1.85583">
        <ele>121</ele>
        <time>2023-05-22T14:18:56Z</time>
      </trkpt>
      <trkpt lat="49.56469" lon="1.85578">
        <ele>122</ele>
        <time>2023-05-22T14:19:01Z</time>
      </trkpt>
      <trkpt lat="49.56568" lon="1.85536">
        <ele>125</ele>
        <time>2023-05-22T14:19:19Z</time>
      </trkpt>
      <trkpt lat="49.56591" lon="1.85535">
        <ele>126</ele>
        <time>2023-05-22T14:19:23Z</time>
      </trkpt>
      <trkpt lat="49.56618" lon="1.85541">
        <ele>127</ele>
        <time>2023-05-22T14:19:28Z</time>
      </trkpt>
      <trkpt lat="49.56784" lon="1.85641">
        <ele>135</ele>
        <time>2023-05-22T14:20:00Z</time>
      </trkpt>
      <trkpt lat="49.56845" lon="1.8568">
        <ele>138</ele>
        <time>2023-05-22T14:20:11Z</time>
      </trkpt>
      <trkpt lat="49.56868" lon="1.85716">
        <ele>140</ele>
        <time>2023-05-22T14:20:17Z</time>
      </trkpt>
      <trkpt lat="49.56901" lon="1.85863">
        <ele>143</ele>
        <time>2023-05-22T14:20:35Z</time>
      </trkpt>
      <trkpt lat="49.56922" lon="1.85939">
        <ele>144</ele>
        <time>2023-05-22T14:20:45Z</time>
      </trkpt>
      <trkpt lat="49.56938" lon="1.85978">
        <ele>146</ele>
        <time>2023-05-22T14:20:50Z</time>
      </trkpt>
      <trkpt lat="49.56969" lon="1.86027">
        <ele>148</ele>
        <time>2023-05-22T14:20:58Z</time>
      </trkpt>
      <trkpt lat="49.571" lon="1.86165">
        <ele>153</ele>
        <time>2023-05-22T14:21:26Z</time>
      </trkpt>
      <trkpt lat="49.57154" lon="1.86203">
        <ele>156</ele>
        <time>2023-05-22T14:21:37Z</time>
      </trkpt>
      <trkpt lat="49.57188" lon="1.86238">
        <ele>157</ele>
        <time>2023-05-22T14:21:44Z</time>
      </trkpt>
      <trkpt lat="49.57212" lon="1.86277">
        <ele>159</ele>
        <time>2023-05-22T14:21:50Z</time>
      </trkpt>
      <trkpt lat="49.57248" lon="1.86391">
        <ele>162</ele>
        <time>2023-05-22T14:22:05Z</time>
      </trkpt>
      <trkpt lat="49.57291" lon="1.86544">
        <ele>166</ele>
        <time>2023-05-22T14:22:24Z</time>
      </trkpt>
      <trkpt lat="49.57353" lon="1.86624">
        <ele>166</ele>
        <time>2023-05-22T14:22:38Z</time>
      </trkpt>
      <trkpt lat="49.57434" lon="1.86694">
        <ele>167</ele>
        <time>2023-05-22T14:22:55Z</time>
      </trkpt>
      <trkpt lat="49.57491" lon="1.86706">
        <ele>169</ele>
        <time>2023-05-22T14:23:05Z</time>
      </trkpt>
      <trkpt lat="49.57532" lon="1.86725">
        <ele>170</ele>
        <time>2023-05-22T14:23:13Z</time>
      </trkpt>
      <trkpt lat="49.57616" lon="1.86788">
        <ele>175</ele>
        <time>2023-05-22T14:23:29Z</time>
      </trkpt>
      <trkpt lat="49.57685" lon="1.86832">
        <ele>176</ele>
        <time>2023-05-22T14:23:43Z</time>
      </trkpt>
      <trkpt lat="49.57928" lon="1.86891">
        <ele>183</ele>
        <time>2023-05-22T14:24:26Z</time>
      </trkpt>
      <trkpt lat="49.57957" lon="1.86904">
        <ele>183</ele>
        <time>2023-05-22T14:24:32Z</time>
      </trkpt>
      <trkpt lat="49.58055" lon="1.87009">
        <ele>186</ele>
        <time>2023-05-22T14:24:53Z</time>
      </trkpt>
      <trkpt lat="49.5815" lon="1.87119">
        <ele>186</ele>
        <time>2023-05-22T14:25:14Z</time>
      </trkpt>
      <trkpt lat="49.58173" lon="1.87138">
        <ele>185</ele>
        <time>2023-05-22T14:25:19Z</time>
      </trkpt>
      <trkpt lat="49.58245" lon="1.87168">
        <ele>187</ele>
        <time>2023-05-22T14:25:32Z</time>
      </trkpt>
      <trkpt lat="49.58337" lon="1.87217">
        <ele>187</ele>
        <time>2023-05-22T14:25:49Z</time>
      </trkpt>
      <trkpt lat="49.58402" lon="1.87231">
        <ele>186</ele>
        <time>2023-05-22T14:26:01Z</time>
      </trkpt>
      <trkpt lat="49.58459" lon="1.87258">
        <ele>185</ele>
        <time>2023-05-22T14:26:12Z</time>
      </trkpt>
      <trkpt lat="49.58529" lon="1.87319">
        <ele>185</ele>
        <time>2023-05-22T14:26:26Z</time>
      </trkpt>
      <trkpt lat="49.586" lon="1.87443">
        <ele>183</ele>
        <time>2023-05-22T14:26:45Z</time>
      </trkpt>
      <trkpt lat="49.58656" lon="1.87527">
        <ele>180</ele>
        <time>2023-05-22T14:26:59Z</time>
      </trkpt>
      <trkpt lat="49.58689" lon="1.87566">
        <ele>179</ele>
        <time>2023-05-22T14:27:06Z</time>
      </trkpt>
      <trkpt lat="49.58802" lon="1.87663">
        <ele>175</ele>
        <time>2023-05-22T14:27:29Z</time>
      </trkpt>
      <trkpt lat="49.58825" lon="1.87681">
        <ele>175</ele>
        <time>2023-05-22T14:27:34Z</time>
      </trkpt>
      <trkpt lat="49.58903" lon="1.87722">
        <ele>174</ele>
        <time>2023-05-22T14:27:49Z</time>
      </trkpt>
      <trkpt lat="49.58979" lon="1.87763">
        <ele>174</ele>
        <time>2023-05-22T14:28:03Z</time>
      </trkpt>
      <trkpt lat="49.59072" lon="1.87817">
        <ele>176</ele>
        <time>2023-05-22T14:28:21Z</time>
      </trkpt>
      <trkpt lat="49.59135" lon="1.87865">
        <ele>177</ele>
        <time>2023-05-22T14:28:33Z</time>
      </trkpt>
      <trkpt lat="49.59182" lon="1.87907">
        <ele>179</ele>
        <time>2023-05-22T14:28:43Z</time>
      </trkpt>
      <trkpt lat="49.59298" lon="1.88045">
        <ele>178</ele>
        <time>2023-05-22T14:29:09Z</time>
      </trkpt>
      <trkpt lat="49.59344" lon="1.88112">
        <ele>176</ele>
        <time>2023-05-22T14:29:20Z</time>
      </trkpt>
      <trkpt lat="49.59462" lon="1.88272">
        <ele>176</ele>
        <time>2023-05-22T14:29:48Z</time>
      </trkpt>
      <trkpt lat="49.59662" lon="1.88517">
        <ele>178</ele>
        <time>2023-05-22T14:30:33Z</time>
      </trkpt>
      <trkpt lat="49.5975" lon="1.88621">
        <ele>178</ele>
        <time>2023-05-22T14:30:53Z</time>
      </trkpt>
      <trkpt lat="49.59787" lon="1.88684">
        <ele>178</ele>
        <time>2023-05-22T14:31:03Z</time>
      </trkpt>
      <trkpt lat="49.59826" lon="1.88774">
        <ele>176</ele>
        <time>2023-05-22T14:31:15Z</time>
      </trkpt>
      <trkpt lat="49.59872" lon="1.88846">
        <ele>174</ele>
        <time>2023-05-22T14:31:27Z</time>
      </trkpt>
      <trkpt lat="49.59911" lon="1.88893">
        <ele>172</ele>
        <time>2023-05-22T14:31:36Z</time>
      </trkpt>
      <trkpt lat="49.59954" lon="1.88964">
        <ele>167</ele>
        <time>2023-05-22T14:31:47Z</time>
      </trkpt>
      <trkpt lat="49.59968" lon="1.88999">
        <ele>163</ele>
        <time>2023-05-22T14:31:52Z</time>
      </trkpt>
      <trkpt lat="49.59978" lon="1.89153">
        <ele>157</ele>
        <time>2023-05-22T14:32:10Z</time>
      </trkpt>
      <trkpt lat="49.59975" lon="1.89208">
        <ele>156</ele>
        <time>2023-05-22T14:32:16Z</time>
      </trkpt>
      <trkpt lat="49.59958" lon="1.89265">
        <ele>158</ele>
        <time>2023-05-22T14:32:23Z</time>
      </trkpt>
      <trkpt lat="49.59955" lon="1.89301">
        <ele>157</ele>
        <time>2023-05-22T14:32:28Z</time>
      </trkpt>
      <trkpt lat="49.59961" lon="1.89336">
        <ele>154</ele>
        <time>2023-05-22T14:32:32Z</time>
      </trkpt>
      <trkpt lat="49.59973" lon="1.89362">
        <ele>151</ele>
        <time>2023-05-22T14:32:35Z</time>
      </trkpt>
      <trkpt lat="49.60026" lon="1.89403">
        <ele>143</ele>
        <time>2023-05-22T14:32:46Z</time>
      </trkpt>
      <trkpt lat="49.60076" lon="1.89434">
        <ele>138</ele>
        <time>2023-05-22T14:32:56Z</time>
      </trkpt>
      <trkpt lat="49.60104" lon="1.89463">
        <ele>136</ele>
        <time>2023-05-22T14:33:02Z</time>
      </trkpt>
      <trkpt lat="49.60134" lon="1.89489">
        <ele>135</ele>
        <time>2023-05-22T14:33:08Z</time>
      </trkpt>
      <trkpt lat="49.60145" lon="1.89497">
        <ele>134</ele>
        <time>2023-05-22T14:33:10Z</time>
      </trkpt>
      <trkpt lat="49.6017" lon="1.89502">
        <ele>134</ele>
        <time>2023-05-22T14:33:14Z</time>
      </trkpt>
      <trkpt lat="49.60192" lon="1.89503">
        <ele>134</ele>
        <time>2023-05-22T14:33:18Z</time>
      </trkpt>
      <trkpt lat="49.60203" lon="1.895">
        <ele>134</ele>
        <time>2023-05-22T14:33:20Z</time>
      </trkpt>
      <trkpt lat="49.60229" lon="1.89494">
        <ele>135</ele>
        <time>2023-05-22T14:33:25Z</time>
      </trkpt>
      <trkpt lat="49.60255" lon="1.89497">
        <ele>135</ele>
        <time>2023-05-22T14:33:30Z</time>
      </trkpt>
      <trkpt lat="49.60336" lon="1.89521">
        <ele>137</ele>
        <time>2023-05-22T14:33:44Z</time>
      </trkpt>
      <trkpt lat="49.60362" lon="1.89522">
        <ele>137</ele>
        <time>2023-05-22T14:33:49Z</time>
      </trkpt>
      <trkpt lat="49.60385" lon="1.89516">
        <ele>137</ele>
        <time>2023-05-22T14:33:53Z</time>
      </trkpt>
      <trkpt lat="49.60453" lon="1.89454">
        <ele>138</ele>
        <time>2023-05-22T14:34:07Z</time>
      </trkpt>
      <trkpt lat="49.60583" lon="1.89434">
        <ele>141</ele>
        <time>2023-05-22T14:34:30Z</time>
      </trkpt>
      <trkpt lat="49.60599" lon="1.89449">
        <ele>143</ele>
        <time>2023-05-22T14:34:34Z</time>
      </trkpt>
      <trkpt lat="49.60609" lon="1.89471">
        <ele>145</ele>
        <time>2023-05-22T14:34:37Z</time>
      </trkpt>
      <trkpt lat="49.60615" lon="1.89498">
        <ele>147</ele>
        <time>2023-05-22T14:34:40Z</time>
      </trkpt>
      <trkpt lat="49.60608" lon="1.89526">
        <ele>148</ele>
        <time>2023-05-22T14:34:43Z</time>
      </trkpt>
      <trkpt lat="49.60564" lon="1.8959">
        <ele>148</ele>
        <time>2023-05-22T14:34:54Z</time>
      </trkpt>
      <trkpt lat="49.60529" lon="1.89626">
        <ele>149</ele>
        <time>2023-05-22T14:35:02Z</time>
      </trkpt>
      <trkpt lat="49.60519" lon="1.89648">
        <ele>151</ele>
        <time>2023-05-22T14:35:05Z</time>
      </trkpt>
      <trkpt lat="49.6052" lon="1.89672">
        <ele>155</ele>
        <time>2023-05-22T14:35:08Z</time>
      </trkpt>
      <trkpt lat="49.60532" lon="1.89686">
        <ele>160</ele>
        <time>2023-05-22T14:35:10Z</time>
      </trkpt>
      <trkpt lat="49.60545" lon="1.89687">
        <ele>162</ele>
        <time>2023-05-22T14:35:13Z</time>
      </trkpt>
      <trkpt lat="49.60586" lon="1.89666">
        <ele>163</ele>
        <time>2023-05-22T14:35:20Z</time>
      </trkpt>
      <trkpt lat="49.60613" lon="1.89655">
        <ele>164</ele>
        <time>2023-05-22T14:35:25Z</time>
      </trkpt>
      <trkpt lat="49.60663" lon="1.89665">
        <ele>169</ele>
        <time>2023-05-22T14:35:34Z</time>
      </trkpt>
      <trkpt lat="49.60705" lon="1.89679">
        <ele>171</ele>
        <time>2023-05-22T14:35:42Z</time>
      </trkpt>
      <trkpt lat="49.60814" lon="1.8974">
        <ele>174</ele>
        <time>2023-05-22T14:36:02Z</time>
      </trkpt>
      <trkpt lat="49.60868" lon="1.89755">
        <ele>174</ele>
        <time>2023-05-22T14:36:12Z</time>
      </trkpt>
      <trkpt lat="49.60908" lon="1.89776">
        <ele>176</ele>
        <time>2023-05-22T14:36:20Z</time>
      </trkpt>
      <trkpt lat="49.60973" lon="1.89842">
        <ele>178</ele>
        <time>2023-05-22T14:36:34Z</time>
      </trkpt>
      <trkpt lat="49.61095" lon="1.89941">
        <ele>182</ele>
        <time>2023-05-22T14:36:58Z</time>
      </trkpt>
      <trkpt lat="49.61182" lon="1.90037">
        <ele>184</ele>
        <time>2023-05-22T14:37:17Z</time>
      </trkpt>
      <trkpt lat="49.61196" lon="1.90062">
        <ele>184</ele>
        <time>2023-05-22T14:37:21Z</time>
      </trkpt>
      <trkpt lat="49.61351" lon="1.90303">
        <ele>186</ele>
        <time>2023-05-22T14:38:00Z</time>
      </trkpt>
      <trkpt lat="49.6145" lon="1.90451">
        <ele>185</ele>
        <time>2023-05-22T14:38:25Z</time>
      </trkpt>
      <trkpt lat="49.61558" lon="1.90642">
        <ele>184</ele>
        <time>2023-05-22T14:38:54Z</time>
      </trkpt>
      <trkpt lat="49.61737" lon="1.90926">
        <ele>187</ele>
        <time>2023-05-22T14:39:40Z</time>
      </trkpt>
      <trkpt lat="49.61773" lon="1.90976">
        <ele>187</ele>
        <time>2023-05-22T14:39:48Z</time>
      </trkpt>
      <trkpt lat="49.61802" lon="1.91024">
        <ele>186</ele>
        <time>2023-05-22T14:39:56Z</time>
      </trkpt>
      <trkpt lat="49.61863" lon="1.91151">
        <ele>185</ele>
        <time>2023-05-22T14:40:14Z</time>
      </trkpt>
      <trkpt lat="49.61904" lon="1.91111">
        <ele>185</ele>
        <time>2023-05-22T14:40:23Z</time>
      </trkpt>
      <trkpt lat="49.61999" lon="1.91021">
        <ele>184</ele>
        <time>2023-05-22T14:40:42Z</time>
      </trkpt>
      <trkpt lat="49.62202" lon="1.90779">
        <ele>188</ele>
        <time>2023-05-22T14:41:28Z</time>
      </trkpt>
      <trkpt lat="49.62301" lon="1.90615">
        <ele>194</ele>
        <time>2023-05-22T14:41:54Z</time>
      </trkpt>
      <trkpt lat="49.62374" lon="1.90508">
        <ele>197</ele>
        <time>2023-05-22T14:42:12Z</time>
      </trkpt>
      <trkpt lat="49.62458" lon="1.90396">
        <ele>196</ele>
        <time>2023-05-22T14:42:32Z</time>
      </trkpt>
      <trkpt lat="49.62497" lon="1.90331">
        <ele>196</ele>
        <time>2023-05-22T14:42:42Z</time>
      </trkpt>
      <trkpt lat="49.62546" lon="1.90218">
        <ele>194</ele>
        <time>2023-05-22T14:42:57Z</time>
      </trkpt>
      <trkpt lat="49.62723" lon="1.8975">
        <ele>192</ele>
        <time>2023-05-22T14:44:00Z</time>
      </trkpt>
      <trkpt lat="49.63085" lon="1.88784">
        <ele>193</ele>
        <time>2023-05-22T14:46:08Z</time>
      </trkpt>
      <trkpt lat="49.63502" lon="1.87677">
        <ele>191</ele>
        <time>2023-05-22T14:48:36Z</time>
      </trkpt>
      <trkpt lat="49.63755" lon="1.87002">
        <ele>192</ele>
        <time>2023-05-22T14:50:06Z</time>
      </trkpt>
      <trkpt lat="49.63886" lon="1.86645">
        <ele>182</ele>
        <time>2023-05-22T14:50:53Z</time>
      </trkpt>
      <trkpt lat="49.64054" lon="1.86124">
        <ele>190</ele>
        <time>2023-05-22T14:52:00Z</time>
      </trkpt>
      <trkpt lat="49.64234" lon="1.85553">
        <ele>195</ele>
        <time>2023-05-22T14:53:13Z</time>
      </trkpt>
      <trkpt lat="49.6426" lon="1.85496">
        <ele>196</ele>
        <time>2023-05-22T14:53:21Z</time>
      </trkpt>
      <trkpt lat="49.64282" lon="1.85409">
        <ele>197</ele>
        <time>2023-05-22T14:53:32Z</time>
      </trkpt>
      <trkpt lat="49.64306" lon="1.85331">
        <ele>196</ele>
        <time>2023-05-22T14:53:42Z</time>
      </trkpt>
      <trkpt lat="49.64392" lon="1.85161">
        <ele>197</ele>
        <time>2023-05-22T14:54:07Z</time>
      </trkpt>
      <trkpt lat="49.64431" lon="1.8509">
        <ele>196</ele>
        <time>2023-05-22T14:54:18Z</time>
      </trkpt>
      <trkpt lat="49.64469" lon="1.85033">
        <ele>196</ele>
        <time>2023-05-22T14:54:27Z</time>
      </trkpt>
      <trkpt lat="49.64509" lon="1.84957">
        <ele>195</ele>
        <time>2023-05-22T14:54:39Z</time>
      </trkpt>
      <trkpt lat="49.64534" lon="1.84913">
        <ele>195</ele>
        <time>2023-05-22T14:54:45Z</time>
      </trkpt>
      <trkpt lat="49.64591" lon="1.84833">
        <ele>194</ele>
        <time>2023-05-22T14:54:59Z</time>
      </trkpt>
      <trkpt lat="49.6462" lon="1.84786">
        <ele>195</ele>
        <time>2023-05-22T14:55:06Z</time>
      </trkpt>
      <trkpt lat="49.64662" lon="1.846">
        <ele>197</ele>
        <time>2023-05-22T14:55:29Z</time>
      </trkpt>
      <trkpt lat="49.64706" lon="1.84509">
        <ele>199</ele>
        <time>2023-05-22T14:55:42Z</time>
      </trkpt>
      <trkpt lat="49.64712" lon="1.84498">
        <ele>199</ele>
        <time>2023-05-22T14:55:44Z</time>
      </trkpt>
      <trkpt lat="49.64667" lon="1.84454">
        <ele>199</ele>
        <time>2023-05-22T14:55:53Z</time>
      </trkpt>
      <trkpt lat="49.64659" lon="1.84442">
        <ele>199</ele>
        <time>2023-05-22T14:55:55Z</time>
      </trkpt>
      <trkpt lat="49.64655" lon="1.84423">
        <ele>199</ele>
        <time>2023-05-22T14:55:58Z</time>
      </trkpt>
      <trkpt lat="49.64652" lon="1.84393">
        <ele>198</ele>
        <time>2023-05-22T14:56:01Z</time>
      </trkpt>
      <trkpt lat="49.64649" lon="1.84383">
        <ele>198</ele>
        <time>2023-05-22T14:56:02Z</time>
      </trkpt>
      <trkpt lat="49.64644" lon="1.84375">
        <ele>198</ele>
        <time>2023-05-22T14:56:04Z</time>
      </trkpt>
      <trkpt lat="49.64563" lon="1.84301">
        <ele>196</ele>
        <time>2023-05-22T14:56:20Z</time>
      </trkpt>
      <trkpt lat="49.64497" lon="1.84233">
        <ele>197</ele>
        <time>2023-05-22T14:56:35Z</time>
      </trkpt>
      <trkpt lat="49.64449" lon="1.84189">
        <ele>199</ele>
        <time>2023-05-22T14:56:44Z</time>
      </trkpt>
      <trkpt lat="49.64438" lon="1.84174">
        <ele>200</ele>
        <time>2023-05-22T14:56:47Z</time>
      </trkpt>
      <trkpt lat="49.64384" lon="1.8407">
        <ele>200</ele>
        <time>2023-05-22T14:57:02Z</time>
      </trkpt>
      <trkpt lat="49.64365" lon="1.84041">
        <ele>199</ele>
        <time>2023-05-22T14:57:07Z</time>
      </trkpt>
      <trkpt lat="49.6431" lon="1.83962">
        <ele>197</ele>
        <time>2023-05-22T14:57:21Z</time>
      </trkpt>
      <trkpt lat="49.643" lon="1.83945">
        <ele>197</ele>
        <time>2023-05-22T14:57:23Z</time>
      </trkpt>
      <trkpt lat="49.64252" lon="1.83839">
        <ele>197</ele>
        <time>2023-05-22T14:57:38Z</time>
      </trkpt>
      <trkpt lat="49.64215" lon="1.83744">
        <ele>198</ele>
        <time>2023-05-22T14:57:51Z</time>
      </trkpt>
      <trkpt lat="49.64195" lon="1.83716">
        <ele>198</ele>
        <time>2023-05-22T14:57:56Z</time>
      </trkpt>
      <trkpt lat="49.64184" lon="1.83702">
        <ele>198</ele>
        <time>2023-05-22T14:57:58Z</time>
      </trkpt>
      <trkpt lat="49.64067" lon="1.83591">
        <ele>200</ele>
        <time>2023-05-22T14:58:23Z</time>
      </trkpt>
      <trkpt lat="49.63965" lon="1.83486">
        <ele>201</ele>
        <time>2023-05-22T14:58:44Z</time>
      </trkpt>
      <trkpt lat="49.6394" lon="1.83453">
        <ele>200</ele>
        <time>2023-05-22T14:58:50Z</time>
      </trkpt>
      <trkpt lat="49.63923" lon="1.83402">
        <ele>200</ele>
        <time>2023-05-22T14:58:57Z</time>
      </trkpt>
      <trkpt lat="49.63916" lon="1.83373">
        <ele>199</ele>
        <time>2023-05-22T14:59:00Z</time>
      </trkpt>
      <trkpt lat="49.63885" lon="1.83325">
        <ele>198</ele>
        <time>2023-05-22T14:59:08Z</time>
      </trkpt>
      <trkpt lat="49.63738" lon="1.8316">
        <ele>196</ele>
        <time>2023-05-22T14:59:41Z</time>
      </trkpt>
      <trkpt lat="49.63689" lon="1.83098">
        <ele>195</ele>
        <time>2023-05-22T14:59:52Z</time>
      </trkpt>
      <trkpt lat="49.63639" lon="1.82949">
        <ele>193</ele>
        <time>2023-05-22T15:00:11Z</time>
      </trkpt>
      <trkpt lat="49.63599" lon="1.82865">
        <ele>191</ele>
        <time>2023-05-22T15:00:23Z</time>
      </trkpt>
      <trkpt lat="49.63537" lon="1.82764">
        <ele>189</ele>
        <time>2023-05-22T15:00:39Z</time>
      </trkpt>
      <trkpt lat="49.63438" lon="1.82681">
        <ele>188</ele>
        <time>2023-05-22T15:00:59Z</time>
      </trkpt>
      <trkpt lat="49.63354" lon="1.82619">
        <ele>191</ele>
        <time>2023-05-22T15:01:16Z</time>
      </trkpt>
      <trkpt lat="49.63299" lon="1.82534">
        <ele>190</ele>
        <time>2023-05-22T15:01:30Z</time>
      </trkpt>
      <trkpt lat="49.63264" lon="1.82518">
        <ele>187</ele>
        <time>2023-05-22T15:01:36Z</time>
      </trkpt>
      <trkpt lat="49.632" lon="1.82496">
        <ele>178</ele>
        <time>2023-05-22T15:01:48Z</time>
      </trkpt>
      <trkpt lat="49.63165" lon="1.8241">
        <ele>172</ele>
        <time>2023-05-22T15:02:00Z</time>
      </trkpt>
      <trkpt lat="49.6316" lon="1.82342">
        <ele>170</ele>
        <time>2023-05-22T15:02:08Z</time>
      </trkpt>
      <trkpt lat="49.63168" lon="1.82261">
        <ele>170</ele>
        <time>2023-05-22T15:02:17Z</time>
      </trkpt>
      <trkpt lat="49.63186" lon="1.8217">
        <ele>170</ele>
        <time>2023-05-22T15:02:28Z</time>
      </trkpt>
      <trkpt lat="49.6319" lon="1.82137">
        <ele>171</ele>
        <time>2023-05-22T15:02:32Z</time>
      </trkpt>
      <trkpt lat="49.63186" lon="1.82101">
        <ele>172</ele>
        <time>2023-05-22T15:02:36Z</time>
      </trkpt>
      <trkpt lat="49.63176" lon="1.82073">
        <ele>172</ele>
        <time>2023-05-22T15:02:40Z</time>
      </trkpt>
      <trkpt lat="49.63164" lon="1.82063">
        <ele>172</ele>
        <time>2023-05-22T15:02:42Z</time>
      </trkpt>
      <trkpt lat="49.63133" lon="1.82049">
        <ele>174</ele>
        <time>2023-05-22T15:02:48Z</time>
      </trkpt>
      <trkpt lat="49.63102" lon="1.82017">
        <ele>176</ele>
        <time>2023-05-22T15:02:54Z</time>
      </trkpt>
      <trkpt lat="49.6307" lon="1.8198">
        <ele>179</ele>
        <time>2023-05-22T15:03:02Z</time>
      </trkpt>
      <trkpt lat="49.63061" lon="1.81868">
        <ele>179</ele>
        <time>2023-05-22T15:03:15Z</time>
      </trkpt>
      <trkpt lat="49.63041" lon="1.81582">
        <ele>185</ele>
        <time>2023-05-22T15:03:48Z</time>
      </trkpt>
      <trkpt lat="49.63028" lon="1.8149">
        <ele>187</ele>
        <time>2023-05-22T15:03:59Z</time>
      </trkpt>
      <trkpt lat="49.62982" lon="1.81354">
        <ele>190</ele>
        <time>2023-05-22T15:04:16Z</time>
      </trkpt>
      <trkpt lat="49.62948" lon="1.81153">
        <ele>192</ele>
        <time>2023-05-22T15:04:40Z</time>
      </trkpt>
      <trkpt lat="49.62909" lon="1.81043">
        <ele>194</ele>
        <time>2023-05-22T15:04:55Z</time>
      </trkpt>
      <trkpt lat="49.62894" lon="1.80988">
        <ele>195</ele>
        <time>2023-05-22T15:05:02Z</time>
      </trkpt>
      <trkpt lat="49.62884" lon="1.80852">
        <ele>197</ele>
        <time>2023-05-22T15:05:17Z</time>
      </trkpt>
      <trkpt lat="49.6287" lon="1.807">
        <ele>198</ele>
        <time>2023-05-22T15:05:35Z</time>
      </trkpt>
      <trkpt lat="49.62861" lon="1.80537">
        <ele>199</ele>
        <time>2023-05-22T15:05:54Z</time>
      </trkpt>
      <trkpt lat="49.62845" lon="1.80393">
        <ele>199</ele>
        <time>2023-05-22T15:06:11Z</time>
      </trkpt>
      <trkpt lat="49.62819" lon="1.80294">
        <ele>199</ele>
        <time>2023-05-22T15:06:23Z</time>
      </trkpt>
      <trkpt lat="49.62754" lon="1.80192">
        <ele>196</ele>
        <time>2023-05-22T15:06:40Z</time>
      </trkpt>
      <trkpt lat="49.62709" lon="1.80115">
        <ele>195</ele>
        <time>2023-05-22T15:06:51Z</time>
      </trkpt>
      <trkpt lat="49.62687" lon="1.80075">
        <ele>195</ele>
        <time>2023-05-22T15:06:58Z</time>
      </trkpt>
      <trkpt lat="49.62652" lon="1.8">
        <ele>196</ele>
        <time>2023-05-22T15:07:08Z</time>
      </trkpt>
      <trkpt lat="49.62617" lon="1.79894">
        <ele>197</ele>
        <time>2023-05-22T15:07:22Z</time>
      </trkpt>
      <trkpt lat="49.626" lon="1.79847">
        <ele>196</ele>
        <time>2023-05-22T15:07:28Z</time>
      </trkpt>
      <trkpt lat="49.62438" lon="1.79439">
        <ele>201</ele>
        <time>2023-05-22T15:08:23Z</time>
      </trkpt>
      <trkpt lat="49.62415" lon="1.79385">
        <ele>202</ele>
        <time>2023-05-22T15:08:31Z</time>
      </trkpt>
      <trkpt lat="49.62359" lon="1.79274">
        <ele>203</ele>
        <time>2023-05-22T15:08:47Z</time>
      </trkpt>
      <trkpt lat="49.62298" lon="1.79151">
        <ele>204</ele>
        <time>2023-05-22T15:09:05Z</time>
      </trkpt>
      <trkpt lat="49.62379" lon="1.78959">
        <ele>204</ele>
        <time>2023-05-22T15:09:31Z</time>
      </trkpt>
      <trkpt lat="49.62497" lon="1.78673">
        <ele>205</ele>
        <time>2023-05-22T15:10:10Z</time>
      </trkpt>
      <trkpt lat="49.62516" lon="1.78638">
        <ele>205</ele>
        <time>2023-05-22T15:10:16Z</time>
      </trkpt>
      <trkpt lat="49.62532" lon="1.78614">
        <ele>204</ele>
        <time>2023-05-22T15:10:20Z</time>
      </trkpt>
      <trkpt lat="49.62659" lon="1.78535">
        <ele>203</ele>
        <time>2023-05-22T15:10:44Z</time>
      </trkpt>
      <trkpt lat="49.62691" lon="1.78488">
        <ele>203</ele>
        <time>2023-05-22T15:10:52Z</time>
      </trkpt>
      <trkpt lat="49.62735" lon="1.7834">
        <ele>202</ele>
        <time>2023-05-22T15:11:10Z</time>
      </trkpt>
      <trkpt lat="49.62775" lon="1.78229">
        <ele>204</ele>
        <time>2023-05-22T15:11:25Z</time>
      </trkpt>
      <trkpt lat="49.62823" lon="1.78088">
        <ele>206</ele>
        <time>2023-05-22T15:11:43Z</time>
      </trkpt>
      <trkpt lat="49.62885" lon="1.77895">
        <ele>207</ele>
        <time>2023-05-22T15:12:08Z</time>
      </trkpt>
      <trkpt lat="49.62965" lon="1.77633">
        <ele>207</ele>
        <time>2023-05-22T15:12:42Z</time>
      </trkpt>
      <trkpt lat="49.63028" lon="1.77443">
        <ele>208</ele>
        <time>2023-05-22T15:13:06Z</time>
      </trkpt>
      <trkpt lat="49.63098" lon="1.77249">
        <ele>208</ele>
        <time>2023-05-22T15:13:32Z</time>
      </trkpt>
      <trkpt lat="49.6316" lon="1.77065">
        <ele>211</ele>
        <time>2023-05-22T15:13:56Z</time>
      </trkpt>
      <trkpt lat="49.63178" lon="1.7699">
        <ele>211</ele>
        <time>2023-05-22T15:14:05Z</time>
      </trkpt>
      <trkpt lat="49.63308" lon="1.7623">
        <ele>213</ele>
        <time>2023-05-22T15:15:36Z</time>
      </trkpt>
      <trkpt lat="49.63337" lon="1.76046">
        <ele>213</ele>
        <time>2023-05-22T15:15:57Z</time>
      </trkpt>
      <trkpt lat="49.63359" lon="1.75921">
        <ele>214</ele>
        <time>2023-05-22T15:16:12Z</time>
      </trkpt>
      <trkpt lat="49.63363" lon="1.75902">
        <ele>214</ele>
        <time>2023-05-22T15:16:15Z</time>
      </trkpt>
      <trkpt lat="49.63381" lon="1.75833">
        <ele>215</ele>
        <time>2023-05-22T15:16:23Z</time>
      </trkpt>
      <trkpt lat="49.63409" lon="1.75756">
        <ele>213</ele>
        <time>2023-05-22T15:16:33Z</time>
      </trkpt>
      <trkpt lat="49.63472" lon="1.75627">
        <ele>214</ele>
        <time>2023-05-22T15:16:52Z</time>
      </trkpt>
      <trkpt lat="49.6351" lon="1.7558">
        <ele>214</ele>
        <time>2023-05-22T15:17:01Z</time>
      </trkpt>
      <trkpt lat="49.63704" lon="1.754">
        <ele>215</ele>
        <time>2023-05-22T15:17:41Z</time>
      </trkpt>
      <trkpt lat="49.63746" lon="1.75366">
        <ele>214</ele>
        <time>2023-05-22T15:17:49Z</time>
      </trkpt>
      <trkpt lat="49.63836" lon="1.75284">
        <ele>214</ele>
        <time>2023-05-22T15:18:08Z</time>
      </trkpt>
      <trkpt lat="49.64017" lon="1.7511">
        <ele>218</ele>
        <time>2023-05-22T15:18:46Z</time>
      </trkpt>
      <trkpt lat="49.64079" lon="1.75033">
        <ele>220</ele>
        <time>2023-05-22T15:19:00Z</time>
      </trkpt>
      <trkpt lat="49.64138" lon="1.74956">
        <ele>221</ele>
        <time>2023-05-22T15:19:14Z</time>
      </trkpt>
      <trkpt lat="49.64199" lon="1.7487">
        <ele>222</ele>
        <time>2023-05-22T15:19:29Z</time>
      </trkpt>
      <trkpt lat="49.64264" lon="1.74771">
        <ele>222</ele>
        <time>2023-05-22T15:19:45Z</time>
      </trkpt>
      <trkpt lat="49.6432" lon="1.74666">
        <ele>222</ele>
        <time>2023-05-22T15:20:00Z</time>
      </trkpt>
      <trkpt lat="49.64359" lon="1.74576">
        <ele>221</ele>
        <time>2023-05-22T15:20:13Z</time>
      </trkpt>
      <trkpt lat="49.64449" lon="1.74357">
        <ele>220</ele>
        <time>2023-05-22T15:20:43Z</time>
      </trkpt>
      <trkpt lat="49.64563" lon="1.74121">
        <ele>219</ele>
        <time>2023-05-22T15:21:17Z</time>
      </trkpt>
      <trkpt lat="49.64631" lon="1.73945">
        <ele>220</ele>
        <time>2023-05-22T15:21:40Z</time>
      </trkpt>
      <trkpt lat="49.64673" lon="1.73825">
        <ele>221</ele>
        <time>2023-05-22T15:21:56Z</time>
      </trkpt>
      <trkpt lat="49.64724" lon="1.73727">
        <ele>221</ele>
        <time>2023-05-22T15:22:11Z</time>
      </trkpt>
      <trkpt lat="49.64797" lon="1.73596">
        <ele>222</ele>
        <time>2023-05-22T15:22:30Z</time>
      </trkpt>
      <trkpt lat="49.64844" lon="1.73506">
        <ele>223</ele>
        <time>2023-05-22T15:22:44Z</time>
      </trkpt>
      <trkpt lat="49.64866" lon="1.73435">
        <ele>223</ele>
        <time>2023-05-22T15:22:53Z</time>
      </trkpt>
      <trkpt lat="49.64906" lon="1.73335">
        <ele>221</ele>
        <time>2023-05-22T15:23:06Z</time>
      </trkpt>
      <trkpt lat="49.64979" lon="1.73135">
        <ele>225</ele>
        <time>2023-05-22T15:23:33Z</time>
      </trkpt>
      <trkpt lat="49.64988" lon="1.73116">
        <ele>225</ele>
        <time>2023-05-22T15:23:36Z</time>
      </trkpt>
      <trkpt lat="49.65004" lon="1.73093">
        <ele>225</ele>
        <time>2023-05-22T15:23:39Z</time>
      </trkpt>
      <trkpt lat="49.65043" lon="1.73046">
        <ele>226</ele>
        <time>2023-05-22T15:23:48Z</time>
      </trkpt>
      <trkpt lat="49.65055" lon="1.73037">
        <ele>226</ele>
        <time>2023-05-22T15:23:51Z</time>
      </trkpt>
      <trkpt lat="49.65157" lon="1.72917">
        <ele>226</ele>
        <time>2023-05-22T15:24:13Z</time>
      </trkpt>
      <trkpt lat="49.6517" lon="1.72894">
        <ele>226</ele>
        <time>2023-05-22T15:24:17Z</time>
      </trkpt>
      <trkpt lat="49.65192" lon="1.72865">
        <ele>225</ele>
        <time>2023-05-22T15:24:22Z</time>
      </trkpt>
      <trkpt lat="49.65208" lon="1.72828">
        <ele>225</ele>
        <time>2023-05-22T15:24:27Z</time>
      </trkpt>
      <trkpt lat="49.65227" lon="1.72785">
        <ele>225</ele>
        <time>2023-05-22T15:24:33Z</time>
      </trkpt>
      <trkpt lat="49.65334" lon="1.72512">
        <ele>229</ele>
        <time>2023-05-22T15:25:10Z</time>
      </trkpt>
      <trkpt lat="49.65353" lon="1.72472">
        <ele>229</ele>
        <time>2023-05-22T15:25:16Z</time>
      </trkpt>
      <trkpt lat="49.65367" lon="1.72455">
        <ele>229</ele>
        <time>2023-05-22T15:25:19Z</time>
      </trkpt>
      <trkpt lat="49.65458" lon="1.72368">
        <ele>227</ele>
        <time>2023-05-22T15:25:38Z</time>
      </trkpt>
      <trkpt lat="49.65477" lon="1.72352">
        <ele>227</ele>
        <time>2023-05-22T15:25:42Z</time>
      </trkpt>
      <trkpt lat="49.65492" lon="1.72344">
        <ele>226</ele>
        <time>2023-05-22T15:25:45Z</time>
      </trkpt>
      <trkpt lat="49.65511" lon="1.72342">
        <ele>226</ele>
        <time>2023-05-22T15:25:48Z</time>
      </trkpt>
      <trkpt lat="49.65566" lon="1.72213">
        <ele>229</ele>
        <time>2023-05-22T15:26:06Z</time>
      </trkpt>
      <trkpt lat="49.65637" lon="1.72033">
        <ele>228</ele>
        <time>2023-05-22T15:26:30Z</time>
      </trkpt>
      <trkpt lat="49.65665" lon="1.71968">
        <ele>228</ele>
        <time>2023-05-22T15:26:39Z</time>
      </trkpt>
      <trkpt lat="49.65688" lon="1.71941">
        <ele>228</ele>
        <time>2023-05-22T15:26:44Z</time>
      </trkpt>
      <trkpt lat="49.65962" lon="1.71716">
        <ele>224</ele>
        <time>2023-05-22T15:27:39Z</time>
      </trkpt>
      <trkpt lat="49.66172" lon="1.71453">
        <ele>227</ele>
        <time>2023-05-22T15:28:27Z</time>
      </trkpt>
      <trkpt lat="49.66451" lon="1.71096">
        <ele>224</ele>
        <time>2023-05-22T15:29:32Z</time>
      </trkpt>
      <trkpt lat="49.66494" lon="1.71055">
        <ele>225</ele>
        <time>2023-05-22T15:29:41Z</time>
      </trkpt>
      <trkpt lat="49.66889" lon="1.7081">
        <ele>227</ele>
        <time>2023-05-22T15:30:57Z</time>
      </trkpt>
      <trkpt lat="49.66911" lon="1.70788">
        <ele>227</ele>
        <time>2023-05-22T15:31:01Z</time>
      </trkpt>
      <trkpt lat="49.6692" lon="1.70763">
        <ele>226</ele>
        <time>2023-05-22T15:31:05Z</time>
      </trkpt>
      <trkpt lat="49.67329" lon="1.71037">
        <ele>225</ele>
        <time>2023-05-22T15:32:24Z</time>
      </trkpt>
      <trkpt lat="49.67344" lon="1.71043">
        <ele>225</ele>
        <time>2023-05-22T15:32:27Z</time>
      </trkpt>
      <trkpt lat="49.67438" lon="1.71112">
        <ele>227</ele>
        <time>2023-05-22T15:32:45Z</time>
      </trkpt>
      <trkpt lat="49.67553" lon="1.71186">
        <ele>227</ele>
        <time>2023-05-22T15:33:07Z</time>
      </trkpt>
      <trkpt lat="49.67617" lon="1.71223">
        <ele>227</ele>
        <time>2023-05-22T15:33:20Z</time>
      </trkpt>
      <trkpt lat="49.67656" lon="1.71238">
        <ele>227</ele>
        <time>2023-05-22T15:33:27Z</time>
      </trkpt>
      <trkpt lat="49.67662" lon="1.71235">
        <ele>227</ele>
        <time>2023-05-22T15:33:28Z</time>
      </trkpt>
      <trkpt lat="49.67651" lon="1.71204">
        <ele>227</ele>
        <time>2023-05-22T15:33:32Z</time>
      </trkpt>
      <trkpt lat="49.67893" lon="1.71842">
        <ele>226</ele>
        <time>2023-05-22T15:34:57Z</time>
      </trkpt>
      <trkpt lat="49.67996" lon="1.72122">
        <ele>224</ele>
        <time>2023-05-22T15:35:34Z</time>
      </trkpt>
      <trkpt lat="49.68027" lon="1.72214">
        <ele>224</ele>
        <time>2023-05-22T15:35:46Z</time>
      </trkpt>
      <trkpt lat="49.68066" lon="1.72319">
        <ele>224</ele>
        <time>2023-05-22T15:36:00Z</time>
      </trkpt>
      <trkpt lat="49.68242" lon="1.72261">
        <ele>221</ele>
        <time>2023-05-22T15:36:32Z</time>
      </trkpt>
      <trkpt lat="49.68436" lon="1.72223">
        <ele>220</ele>
        <time>2023-05-22T15:37:07Z</time>
      </trkpt>
      <trkpt lat="49.68466" lon="1.72227">
        <ele>219</ele>
        <time>2023-05-22T15:37:12Z</time>
      </trkpt>
      <trkpt lat="49.68505" lon="1.72248">
        <ele>219</ele>
        <time>2023-05-22T15:37:19Z</time>
      </trkpt>
      <trkpt lat="49.68678" lon="1.72376">
        <ele>216</ele>
        <time>2023-05-22T15:37:54Z</time>
      </trkpt>
      <trkpt lat="49.68704" lon="1.72383">
        <ele>215</ele>
        <time>2023-05-22T15:37:58Z</time>
      </trkpt>
      <trkpt lat="49.68782" lon="1.7239">
        <ele>214</ele>
        <time>2023-05-22T15:38:12Z</time>
      </trkpt>
      <trkpt lat="49.68972" lon="1.72378">
        <ele>215</ele>
        <time>2023-05-22T15:38:46Z</time>
      </trkpt>
      <trkpt lat="49.69057" lon="1.72385">
        <ele>212</ele>
        <time>2023-05-22T15:39:01Z</time>
      </trkpt>
      <trkpt lat="49.69154" lon="1.72389">
        <ele>204</ele>
        <time>2023-05-22T15:39:18Z</time>
      </trkpt>
      <trkpt lat="49.69282" lon="1.72362">
        <ele>191</ele>
        <time>2023-05-22T15:39:41Z</time>
      </trkpt>
      <trkpt lat="49.69312" lon="1.7236">
        <ele>188</ele>
        <time>2023-05-22T15:39:47Z</time>
      </trkpt>
      <trkpt lat="49.69336" lon="1.72363">
        <ele>187</ele>
        <time>2023-05-22T15:39:51Z</time>
      </trkpt>
      <trkpt lat="49.69359" lon="1.72374">
        <ele>186</ele>
        <time>2023-05-22T15:39:55Z</time>
      </trkpt>
      <trkpt lat="49.69375" lon="1.72386">
        <ele>185</ele>
        <time>2023-05-22T15:39:59Z</time>
      </trkpt>
      <trkpt lat="49.69406" lon="1.72426">
        <ele>182</ele>
        <time>2023-05-22T15:40:06Z</time>
      </trkpt>
      <trkpt lat="49.69417" lon="1.72445">
        <ele>181</ele>
        <time>2023-05-22T15:40:09Z</time>
      </trkpt>
      <trkpt lat="49.69432" lon="1.72477">
        <ele>183</ele>
        <time>2023-05-22T15:40:13Z</time>
      </trkpt>
      <trkpt lat="49.69438" lon="1.72494">
        <ele>183</ele>
        <time>2023-05-22T15:40:15Z</time>
      </trkpt>
      <trkpt lat="49.69448" lon="1.7254">
        <ele>186</ele>
        <time>2023-05-22T15:40:21Z</time>
      </trkpt>
      <trkpt lat="49.69455" lon="1.72562">
        <ele>186</ele>
        <time>2023-05-22T15:40:24Z</time>
      </trkpt>
      <trkpt lat="49.69524" lon="1.72689">
        <ele>181</ele>
        <time>2023-05-22T15:40:43Z</time>
      </trkpt>
      <trkpt lat="49.69568" lon="1.72742">
        <ele>179</ele>
        <time>2023-05-22T15:40:53Z</time>
      </trkpt>
      <trkpt lat="49.69673" lon="1.72861">
        <ele>175</ele>
        <time>2023-05-22T15:41:16Z</time>
      </trkpt>
      <trkpt lat="49.69696" lon="1.72893">
        <ele>176</ele>
        <time>2023-05-22T15:41:22Z</time>
      </trkpt>
      <trkpt lat="49.69804" lon="1.73088">
        <ele>177</ele>
        <time>2023-05-22T15:41:51Z</time>
      </trkpt>
      <trkpt lat="49.69912" lon="1.73306">
        <ele>172</ele>
        <time>2023-05-22T15:42:23Z</time>
      </trkpt>
      <trkpt lat="49.7003" lon="1.73692">
        <ele>172</ele>
        <time>2023-05-22T15:43:12Z</time>
      </trkpt>
      <trkpt lat="49.70042" lon="1.73722">
        <ele>171</ele>
        <time>2023-05-22T15:43:16Z</time>
      </trkpt>
      <trkpt lat="49.70088" lon="1.73813">
        <ele>169</ele>
        <time>2023-05-22T15:43:29Z</time>
      </trkpt>
      <trkpt lat="49.70096" lon="1.7384">
        <ele>169</ele>
        <time>2023-05-22T15:43:33Z</time>
      </trkpt>
      <trkpt lat="49.70107" lon="1.7389">
        <ele>170</ele>
        <time>2023-05-22T15:43:39Z</time>
      </trkpt>
      <trkpt lat="49.70117" lon="1.73923">
        <ele>170</ele>
        <time>2023-05-22T15:43:43Z</time>
      </trkpt>
      <trkpt lat="49.70159" lon="1.74016">
        <ele>167</ele>
        <time>2023-05-22T15:43:56Z</time>
      </trkpt>
      <trkpt lat="49.70193" lon="1.74085">
        <ele>167</ele>
        <time>2023-05-22T15:44:06Z</time>
      </trkpt>
      <trkpt lat="49.70217" lon="1.74107">
        <ele>169</ele>
        <time>2023-05-22T15:44:11Z</time>
      </trkpt>
      <trkpt lat="49.70318" lon="1.74176">
        <ele>173</ele>
        <time>2023-05-22T15:44:30Z</time>
      </trkpt>
      <trkpt lat="49.70382" lon="1.74213">
        <ele>175</ele>
        <time>2023-05-22T15:44:43Z</time>
      </trkpt>
      <trkpt lat="49.70405" lon="1.74241">
        <ele>173</ele>
        <time>2023-05-22T15:44:48Z</time>
      </trkpt>
      <trkpt lat="49.70467" lon="1.74333">
        <ele>170</ele>
        <time>2023-05-22T15:45:03Z</time>
      </trkpt>
      <trkpt lat="49.70505" lon="1.74382">
        <ele>171</ele>
        <time>2023-05-22T15:45:12Z</time>
      </trkpt>
      <trkpt lat="49.70539" lon="1.74419">
        <ele>170</ele>
        <time>2023-05-22T15:45:19Z</time>
      </trkpt>
      <trkpt lat="49.70644" lon="1.74574">
        <ele>165</ele>
        <time>2023-05-22T15:45:45Z</time>
      </trkpt>
      <trkpt lat="49.70718" lon="1.74655">
        <ele>165</ele>
        <time>2023-05-22T15:46:01Z</time>
      </trkpt>
      <trkpt lat="49.7083" lon="1.74751">
        <ele>165</ele>
        <time>2023-05-22T15:46:24Z</time>
      </trkpt>
      <trkpt lat="49.70932" lon="1.74841">
        <ele>167</ele>
        <time>2023-05-22T15:46:45Z</time>
      </trkpt>
      <trkpt lat="49.71015" lon="1.74896">
        <ele>167</ele>
        <time>2023-05-22T15:47:01Z</time>
      </trkpt>
      <trkpt lat="49.71036" lon="1.74915">
        <ele>167</ele>
        <time>2023-05-22T15:47:05Z</time>
      </trkpt>
      <trkpt lat="49.71075" lon="1.74958">
        <ele>166</ele>
        <time>2023-05-22T15:47:14Z</time>
      </trkpt>
      <trkpt lat="49.71149" lon="1.75043">
        <ele>166</ele>
        <time>2023-05-22T15:47:30Z</time>
      </trkpt>
      <trkpt lat="49.71177" lon="1.75089">
        <ele>164</ele>
        <time>2023-05-22T15:47:38Z</time>
      </trkpt>
      <trkpt lat="49.712" lon="1.75121">
        <ele>164</ele>
        <time>2023-05-22T15:47:43Z</time>
      </trkpt>
      <trkpt lat="49.71304" lon="1.75232">
        <ele>161</ele>
        <time>2023-05-22T15:48:06Z</time>
      </trkpt>
      <trkpt lat="49.71335" lon="1.75256">
        <ele>160</ele>
        <time>2023-05-22T15:48:12Z</time>
      </trkpt>
      <trkpt lat="49.7141" lon="1.753">
        <ele>160</ele>
        <time>2023-05-22T15:48:26Z</time>
      </trkpt>
      <trkpt lat="49.7145" lon="1.75313">
        <ele>160</ele>
        <time>2023-05-22T15:48:33Z</time>
      </trkpt>
      <trkpt lat="49.71534" lon="1.75319">
        <ele>159</ele>
        <time>2023-05-22T15:48:48Z</time>
      </trkpt>
      <trkpt lat="49.71586" lon="1.75314">
        <ele>157</ele>
        <time>2023-05-22T15:48:58Z</time>
      </trkpt>
      <trkpt lat="49.71774" lon="1.75274">
        <ele>159</ele>
        <time>2023-05-22T15:49:31Z</time>
      </trkpt>
      <trkpt lat="49.718" lon="1.75269">
        <ele>159</ele>
        <time>2023-05-22T15:49:36Z</time>
      </trkpt>
      <trkpt lat="49.71831" lon="1.75257">
        <ele>159</ele>
        <time>2023-05-22T15:49:42Z</time>
      </trkpt>
      <trkpt lat="49.71851" lon="1.75241">
        <ele>158</ele>
        <time>2023-05-22T15:49:46Z</time>
      </trkpt>
      <trkpt lat="49.71897" lon="1.75189">
        <ele>157</ele>
        <time>2023-05-22T15:49:56Z</time>
      </trkpt>
      <trkpt lat="49.71917" lon="1.75177">
        <ele>157</ele>
        <time>2023-05-22T15:50:00Z</time>
      </trkpt>
      <trkpt lat="49.71942" lon="1.7517">
        <ele>157</ele>
        <time>2023-05-22T15:50:04Z</time>
      </trkpt>
      <trkpt lat="49.71974" lon="1.75166">
        <ele>156</ele>
        <time>2023-05-22T15:50:10Z</time>
      </trkpt>
      <trkpt lat="49.71995" lon="1.75154">
        <ele>157</ele>
        <time>2023-05-22T15:50:14Z</time>
      </trkpt>
      <trkpt lat="49.72017" lon="1.75132">
        <ele>158</ele>
        <time>2023-05-22T15:50:18Z</time>
      </trkpt>
      <trkpt lat="49.72039" lon="1.75125">
        <ele>157</ele>
        <time>2023-05-22T15:50:22Z</time>
      </trkpt>
      <trkpt lat="49.72046" lon="1.75126">
        <ele>156</ele>
        <time>2023-05-22T15:50:24Z</time>
      </trkpt>
      <trkpt lat="49.72053" lon="1.7513">
        <ele>155</ele>
        <time>2023-05-22T15:50:25Z</time>
      </trkpt>
      <trkpt lat="49.72076" lon="1.75213">
        <ele>150</ele>
        <time>2023-05-22T15:50:35Z</time>
      </trkpt>
      <trkpt lat="49.7209" lon="1.75273">
        <ele>148</ele>
        <time>2023-05-22T15:50:43Z</time>
      </trkpt>
      <trkpt lat="49.72095" lon="1.75292">
        <ele>148</ele>
        <time>2023-05-22T15:50:45Z</time>
      </trkpt>
      <trkpt lat="49.72106" lon="1.753">
        <ele>148</ele>
        <time>2023-05-22T15:50:47Z</time>
      </trkpt>
      <trkpt lat="49.72113" lon="1.75303">
        <ele>148</ele>
        <time>2023-05-22T15:50:49Z</time>
      </trkpt>
      <trkpt lat="49.72119" lon="1.75306">
        <ele>148</ele>
        <time>2023-05-22T15:50:50Z</time>
      </trkpt>
      <trkpt lat="49.72137" lon="1.75315">
        <ele>149</ele>
        <time>2023-05-22T15:50:53Z</time>
      </trkpt>
      <trkpt lat="49.72198" lon="1.75325">
        <ele>151</ele>
        <time>2023-05-22T15:51:04Z</time>
      </trkpt>
      <trkpt lat="49.72208" lon="1.75329">
        <ele>152</ele>
        <time>2023-05-22T15:51:06Z</time>
      </trkpt>
      <trkpt lat="49.72214" lon="1.75336">
        <ele>152</ele>
        <time>2023-05-22T15:51:07Z</time>
      </trkpt>
      <trkpt lat="49.72217" lon="1.75347">
        <ele>153</ele>
        <time>2023-05-22T15:51:09Z</time>
      </trkpt>
      <trkpt lat="49.72215" lon="1.75359">
        <ele>154</ele>
        <time>2023-05-22T15:51:10Z</time>
      </trkpt>
      <trkpt lat="49.72211" lon="1.75371">
        <ele>155</ele>
        <time>2023-05-22T15:51:12Z</time>
      </trkpt>
      <trkpt lat="49.72098" lon="1.75546">
        <ele>167</ele>
        <time>2023-05-22T15:51:40Z</time>
      </trkpt>
      <trkpt lat="49.72002" lon="1.75617">
        <ele>178</ele>
        <time>2023-05-22T15:51:59Z</time>
      </trkpt>
      <trkpt lat="49.71982" lon="1.75626">
        <ele>179</ele>
        <time>2023-05-22T15:52:03Z</time>
      </trkpt>
      <trkpt lat="49.7195" lon="1.75647">
        <ele>183</ele>
        <time>2023-05-22T15:52:09Z</time>
      </trkpt>
      <trkpt lat="49.7192" lon="1.75656">
        <ele>183</ele>
        <time>2023-05-22T15:52:14Z</time>
      </trkpt>
      <trkpt lat="49.71886" lon="1.75685">
        <ele>189</ele>
        <time>2023-05-22T15:52:21Z</time>
      </trkpt>
      <trkpt lat="49.71848" lon="1.75707">
        <ele>192</ele>
        <time>2023-05-22T15:52:28Z</time>
      </trkpt>
      <trkpt lat="49.71809" lon="1.75737">
        <ele>199</ele>
        <time>2023-05-22T15:52:36Z</time>
      </trkpt>
      <trkpt lat="49.71726" lon="1.75808">
        <ele>209</ele>
        <time>2023-05-22T15:52:53Z</time>
      </trkpt>
      <trkpt lat="49.71674" lon="1.75857">
        <ele>212</ele>
        <time>2023-05-22T15:53:04Z</time>
      </trkpt>
      <trkpt lat="49.71649" lon="1.75885">
        <ele>213</ele>
        <time>2023-05-22T15:53:09Z</time>
      </trkpt>
      <trkpt lat="49.71634" lon="1.75915">
        <ele>215</ele>
        <time>2023-05-22T15:53:14Z</time>
      </trkpt>
      <trkpt lat="49.71603" lon="1.76065">
        <ele>214</ele>
        <time>2023-05-22T15:53:32Z</time>
      </trkpt>
      <trkpt lat="49.71599" lon="1.761">
        <ele>212</ele>
        <time>2023-05-22T15:53:36Z</time>
      </trkpt>
      <trkpt lat="49.71593" lon="1.76121">
        <ele>211</ele>
        <time>2023-05-22T15:53:39Z</time>
      </trkpt>
      <trkpt lat="49.71644" lon="1.76111">
        <ele>212</ele>
        <time>2023-05-22T15:53:48Z</time>
      </trkpt>
      <trkpt lat="49.71774" lon="1.76086">
        <ele>214</ele>
        <time>2023-05-22T15:54:11Z</time>
      </trkpt>
      <trkpt lat="49.72037" lon="1.76091">
        <ele>209</ele>
        <time>2023-05-22T15:54:58Z</time>
      </trkpt>
      <trkpt lat="49.72098" lon="1.7608">
        <ele>210</ele>
        <time>2023-05-22T15:55:09Z</time>
      </trkpt>
      <trkpt lat="49.72146" lon="1.76061">
        <ele>213</ele>
        <time>2023-05-22T15:55:18Z</time>
      </trkpt>
      <trkpt lat="49.72441" lon="1.75928">
        <ele>212</ele>
        <time>2023-05-22T15:56:12Z</time>
      </trkpt>
      <trkpt lat="49.7252" lon="1.75897">
        <ele>212</ele>
        <time>2023-05-22T15:56:27Z</time>
      </trkpt>
      <trkpt lat="49.72584" lon="1.75904">
        <ele>211</ele>
        <time>2023-05-22T15:56:38Z</time>
      </trkpt>
      <trkpt lat="49.73311" lon="1.76206">
        <ele>206</ele>
        <time>2023-05-22T15:58:52Z</time>
      </trkpt>
      <trkpt lat="49.73424" lon="1.76243">
        <ele>204</ele>
        <time>2023-05-22T15:59:13Z</time>
      </trkpt>
      <trkpt lat="49.7364" lon="1.76345">
        <ele>201</ele>
        <time>2023-05-22T15:59:53Z</time>
      </trkpt>
      <trkpt lat="49.73725" lon="1.76376">
        <ele>200</ele>
        <time>2023-05-22T16:00:08Z</time>
      </trkpt>
      <trkpt lat="49.73784" lon="1.76384">
        <ele>198</ele>
        <time>2023-05-22T16:00:19Z</time>
      </trkpt>
      <trkpt lat="49.73832" lon="1.76372">
        <ele>195</ele>
        <time>2023-05-22T16:00:27Z</time>
      </trkpt>
      <trkpt lat="49.74" lon="1.76307">
        <ele>183</ele>
        <time>2023-05-22T16:00:58Z</time>
      </trkpt>
      <trkpt lat="49.74061" lon="1.76281">
        <ele>186</ele>
        <time>2023-05-22T16:01:10Z</time>
      </trkpt>
      <trkpt lat="49.7418" lon="1.76241">
        <ele>187</ele>
        <time>2023-05-22T16:01:31Z</time>
      </trkpt>
      <trkpt lat="49.74228" lon="1.76231">
        <ele>188</ele>
        <time>2023-05-22T16:01:40Z</time>
      </trkpt>
      <trkpt lat="49.74254" lon="1.7623">
        <ele>187</ele>
        <time>2023-05-22T16:01:44Z</time>
      </trkpt>
      <trkpt lat="49.7431" lon="1.76248">
        <ele>186</ele>
        <time>2023-05-22T16:01:55Z</time>
      </trkpt>
      <trkpt lat="49.74395" lon="1.76288">
        <ele>182</ele>
        <time>2023-05-22T16:02:10Z</time>
      </trkpt>
      <trkpt lat="49.74431" lon="1.76298">
        <ele>180</ele>
        <time>2023-05-22T16:02:17Z</time>
      </trkpt>
      <trkpt lat="49.74458" lon="1.76297">
        <ele>176</ele>
        <time>2023-05-22T16:02:22Z</time>
      </trkpt>
      <trkpt lat="49.74478" lon="1.7629">
        <ele>173</ele>
        <time>2023-05-22T16:02:25Z</time>
      </trkpt>
      <trkpt lat="49.74527" lon="1.76262">
        <ele>169</ele>
        <time>2023-05-22T16:02:35Z</time>
      </trkpt>
      <trkpt lat="49.74812" lon="1.76033">
        <ele>169</ele>
        <time>2023-05-22T16:03:32Z</time>
      </trkpt>
      <trkpt lat="49.74973" lon="1.75916">
        <ele>166</ele>
        <time>2023-05-22T16:04:03Z</time>
      </trkpt>
      <trkpt lat="49.75243" lon="1.75706">
        <ele>146</ele>
        <time>2023-05-22T16:04:57Z</time>
      </trkpt>
      <trkpt lat="49.75365" lon="1.75608">
        <ele>140</ele>
        <time>2023-05-22T16:05:22Z</time>
      </trkpt>
      <trkpt lat="49.75401" lon="1.75587">
        <ele>139</ele>
        <time>2023-05-22T16:05:29Z</time>
      </trkpt>
      <trkpt lat="49.7542" lon="1.75578">
        <ele>138</ele>
        <time>2023-05-22T16:05:32Z</time>
      </trkpt>
      <trkpt lat="49.7545" lon="1.7557">
        <ele>137</ele>
        <time>2023-05-22T16:05:38Z</time>
      </trkpt>
      <trkpt lat="49.75542" lon="1.75558">
        <ele>133</ele>
        <time>2023-05-22T16:05:54Z</time>
      </trkpt>
      <trkpt lat="49.75689" lon="1.75538">
        <ele>128</ele>
        <time>2023-05-22T16:06:20Z</time>
      </trkpt>
      <trkpt lat="49.75685" lon="1.75559">
        <ele>128</ele>
        <time>2023-05-22T16:06:23Z</time>
      </trkpt>
      <trkpt lat="49.75614" lon="1.75651">
        <ele>129</ele>
        <time>2023-05-22T16:06:39Z</time>
      </trkpt>
      <trkpt lat="49.75563" lon="1.75751">
        <ele>128</ele>
        <time>2023-05-22T16:06:54Z</time>
      </trkpt>
      <trkpt lat="49.75546" lon="1.75795">
        <ele>129</ele>
        <time>2023-05-22T16:07:00Z</time>
      </trkpt>
      <trkpt lat="49.75509" lon="1.75871">
        <ele>131</ele>
        <time>2023-05-22T16:07:11Z</time>
      </trkpt>
      <trkpt lat="49.75475" lon="1.7592">
        <ele>131</ele>
        <time>2023-05-22T16:07:19Z</time>
      </trkpt>
      <trkpt lat="49.75213" lon="1.76224">
        <ele>135</ele>
        <time>2023-05-22T16:08:17Z</time>
      </trkpt>
      <trkpt lat="49.75185" lon="1.76273">
        <ele>135</ele>
        <time>2023-05-22T16:08:25Z</time>
      </trkpt>
      <trkpt lat="49.75077" lon="1.76498">
        <ele>135</ele>
        <time>2023-05-22T16:08:57Z</time>
      </trkpt>
      <trkpt lat="49.74924" lon="1.76801">
        <ele>138</ele>
        <time>2023-05-22T16:09:41Z</time>
      </trkpt>
      <trkpt lat="49.74798" lon="1.77015">
        <ele>139</ele>
        <time>2023-05-22T16:10:14Z</time>
      </trkpt>
      <trkpt lat="49.74741" lon="1.77093">
        <ele>140</ele>
        <time>2023-05-22T16:10:28Z</time>
      </trkpt>
      <trkpt lat="49.74737" lon="1.77099">
        <ele>140</ele>
        <time>2023-05-22T16:10:29Z</time>
      </trkpt>
      <trkpt lat="49.74666" lon="1.77191">
        <ele>142</ele>
        <time>2023-05-22T16:10:45Z</time>
      </trkpt>
      <trkpt lat="49.74531" lon="1.77356">
        <ele>143</ele>
        <time>2023-05-22T16:11:16Z</time>
      </trkpt>
      <trkpt lat="49.74452" lon="1.77474">
        <ele>145</ele>
        <time>2023-05-22T16:11:36Z</time>
      </trkpt>
      <trkpt lat="49.74445" lon="1.77495">
        <ele>145</ele>
        <time>2023-05-22T16:11:38Z</time>
      </trkpt>
      <trkpt lat="49.74433" lon="1.77561">
        <ele>144</ele>
        <time>2023-05-22T16:11:46Z</time>
      </trkpt>
      <trkpt lat="49.74382" lon="1.77666">
        <ele>145</ele>
        <time>2023-05-22T16:12:01Z</time>
      </trkpt>
      <trkpt lat="49.74351" lon="1.77716">
        <ele>146</ele>
        <time>2023-05-22T16:12:09Z</time>
      </trkpt>
      <trkpt lat="49.74327" lon="1.7775">
        <ele>146</ele>
        <time>2023-05-22T16:12:15Z</time>
      </trkpt>
      <trkpt lat="49.74296" lon="1.77773">
        <ele>146</ele>
        <time>2023-05-22T16:12:21Z</time>
      </trkpt>
      <trkpt lat="49.74202" lon="1.7783">
        <ele>147</ele>
        <time>2023-05-22T16:12:39Z</time>
      </trkpt>
      <trkpt lat="49.74176" lon="1.77854">
        <ele>149</ele>
        <time>2023-05-22T16:12:45Z</time>
      </trkpt>
      <trkpt lat="49.7372" lon="1.78382">
        <ele>156</ele>
        <time>2023-05-22T16:14:26Z</time>
      </trkpt>
      <trkpt lat="49.73705" lon="1.78395">
        <ele>157</ele>
        <time>2023-05-22T16:14:29Z</time>
      </trkpt>
      <trkpt lat="49.73678" lon="1.78409">
        <ele>158</ele>
        <time>2023-05-22T16:14:34Z</time>
      </trkpt>
      <trkpt lat="49.73625" lon="1.78424">
        <ele>158</ele>
        <time>2023-05-22T16:14:44Z</time>
      </trkpt>
      <trkpt lat="49.73584" lon="1.7843">
        <ele>157</ele>
        <time>2023-05-22T16:14:51Z</time>
      </trkpt>
      <trkpt lat="49.73554" lon="1.78421">
        <ele>157</ele>
        <time>2023-05-22T16:14:56Z</time>
      </trkpt>
      <trkpt lat="49.73522" lon="1.78406">
        <ele>158</ele>
        <time>2023-05-22T16:15:02Z</time>
      </trkpt>
      <trkpt lat="49.73497" lon="1.78387">
        <ele>159</ele>
        <time>2023-05-22T16:15:07Z</time>
      </trkpt>
      <trkpt lat="49.73462" lon="1.78346">
        <ele>160</ele>
        <time>2023-05-22T16:15:15Z</time>
      </trkpt>
      <trkpt lat="49.7331" lon="1.78167">
        <ele>166</ele>
        <time>2023-05-22T16:15:49Z</time>
      </trkpt>
      <trkpt lat="49.73295" lon="1.78153">
        <ele>166</ele>
        <time>2023-05-22T16:15:52Z</time>
      </trkpt>
      <trkpt lat="49.73222" lon="1.78102">
        <ele>167</ele>
        <time>2023-05-22T16:16:06Z</time>
      </trkpt>
      <trkpt lat="49.73181" lon="1.78079">
        <ele>167</ele>
        <time>2023-05-22T16:16:14Z</time>
      </trkpt>
      <trkpt lat="49.73097" lon="1.78044">
        <ele>167</ele>
        <time>2023-05-22T16:16:30Z</time>
      </trkpt>
      <trkpt lat="49.73013" lon="1.78015">
        <ele>169</ele>
        <time>2023-05-22T16:16:45Z</time>
      </trkpt>
      <trkpt lat="49.72995" lon="1.78021">
        <ele>169</ele>
        <time>2023-05-22T16:16:48Z</time>
      </trkpt>
      <trkpt lat="49.72934" lon="1.78059">
        <ele>167</ele>
        <time>2023-05-22T16:17:00Z</time>
      </trkpt>
      <trkpt lat="49.72914" lon="1.78062">
        <ele>167</ele>
        <time>2023-05-22T16:17:04Z</time>
      </trkpt>
      <trkpt lat="49.729" lon="1.78055">
        <ele>167</ele>
        <time>2023-05-22T16:17:06Z</time>
      </trkpt>
      <trkpt lat="49.72859" lon="1.78011">
        <ele>166</ele>
        <time>2023-05-22T16:17:15Z</time>
      </trkpt>
      <trkpt lat="49.72838" lon="1.77993">
        <ele>166</ele>
        <time>2023-05-22T16:17:19Z</time>
      </trkpt>
      <trkpt lat="49.72791" lon="1.77961">
        <ele>167</ele>
        <time>2023-05-22T16:17:28Z</time>
      </trkpt>
      <trkpt lat="49.7278" lon="1.7796">
        <ele>167</ele>
        <time>2023-05-22T16:17:30Z</time>
      </trkpt>
      <trkpt lat="49.72769" lon="1.77961">
        <ele>167</ele>
        <time>2023-05-22T16:17:32Z</time>
      </trkpt>
      <trkpt lat="49.72746" lon="1.77973">
        <ele>168</ele>
        <time>2023-05-22T16:17:37Z</time>
      </trkpt>
      <trkpt lat="49.72662" lon="1.77974">
        <ele>171</ele>
        <time>2023-05-22T16:17:52Z</time>
      </trkpt>
      <trkpt lat="49.72626" lon="1.7798">
        <ele>172</ele>
        <time>2023-05-22T16:17:58Z</time>
      </trkpt>
      <trkpt lat="49.726" lon="1.7799">
        <ele>172</ele>
        <time>2023-05-22T16:18:03Z</time>
      </trkpt>
      <trkpt lat="49.72579" lon="1.78001">
        <ele>173</ele>
        <time>2023-05-22T16:18:07Z</time>
      </trkpt>
      <trkpt lat="49.7256" lon="1.78016">
        <ele>174</ele>
        <time>2023-05-22T16:18:11Z</time>
      </trkpt>
      <trkpt lat="49.7252" lon="1.78052">
        <ele>177</ele>
        <time>2023-05-22T16:18:19Z</time>
      </trkpt>
      <trkpt lat="49.72479" lon="1.78094">
        <ele>181</ele>
        <time>2023-05-22T16:18:28Z</time>
      </trkpt>
      <trkpt lat="49.72451" lon="1.78117">
        <ele>184</ele>
        <time>2023-05-22T16:18:33Z</time>
      </trkpt>
      <trkpt lat="49.72424" lon="1.78135">
        <ele>187</ele>
        <time>2023-05-22T16:18:38Z</time>
      </trkpt>
      <trkpt lat="49.7222" lon="1.78213">
        <ele>196</ele>
        <time>2023-05-22T16:19:16Z</time>
      </trkpt>
      <trkpt lat="49.72187" lon="1.78239">
        <ele>197</ele>
        <time>2023-05-22T16:19:22Z</time>
      </trkpt>
      <trkpt lat="49.72168" lon="1.78265">
        <ele>199</ele>
        <time>2023-05-22T16:19:27Z</time>
      </trkpt>
      <trkpt lat="49.72154" lon="1.78302">
        <ele>201</ele>
        <time>2023-05-22T16:19:32Z</time>
      </trkpt>
      <trkpt lat="49.72148" lon="1.7834">
        <ele>204</ele>
        <time>2023-05-22T16:19:36Z</time>
      </trkpt>
      <trkpt lat="49.72146" lon="1.78392">
        <ele>206</ele>
        <time>2023-05-22T16:19:42Z</time>
      </trkpt>
      <trkpt lat="49.72148" lon="1.78455">
        <ele>207</ele>
        <time>2023-05-22T16:19:50Z</time>
      </trkpt>
      <trkpt lat="49.72152" lon="1.78477">
        <ele>207</ele>
        <time>2023-05-22T16:19:52Z</time>
      </trkpt>
      <trkpt lat="49.72191" lon="1.78579">
        <ele>205</ele>
        <time>2023-05-22T16:20:06Z</time>
      </trkpt>
      <trkpt lat="49.72196" lon="1.78607">
        <ele>206</ele>
        <time>2023-05-22T16:20:09Z</time>
      </trkpt>
      <trkpt lat="49.72194" lon="1.78637">
        <ele>207</ele>
        <time>2023-05-22T16:20:13Z</time>
      </trkpt>
      <trkpt lat="49.72185" lon="1.78666">
        <ele>207</ele>
        <time>2023-05-22T16:20:16Z</time>
      </trkpt>
      <trkpt lat="49.72161" lon="1.78701">
        <ele>207</ele>
        <time>2023-05-22T16:20:22Z</time>
      </trkpt>
      <trkpt lat="49.72" lon="1.789">
        <ele>209</ele>
        <time>2023-05-22T16:20:59Z</time>
      </trkpt>
      <trkpt lat="49.71944" lon="1.78957">
        <ele>209</ele>
        <time>2023-05-22T16:21:11Z</time>
      </trkpt>
      <trkpt lat="49.7181" lon="1.79088">
        <ele>210</ele>
        <time>2023-05-22T16:21:39Z</time>
      </trkpt>
      <trkpt lat="49.717" lon="1.79193">
        <ele>211</ele>
        <time>2023-05-22T16:22:02Z</time>
      </trkpt>
      <trkpt lat="49.71667" lon="1.79221">
        <ele>211</ele>
        <time>2023-05-22T16:22:09Z</time>
      </trkpt>
      <trkpt lat="49.71615" lon="1.79253">
        <ele>210</ele>
        <time>2023-05-22T16:22:19Z</time>
      </trkpt>
      <trkpt lat="49.71525" lon="1.79304">
        <ele>210</ele>
        <time>2023-05-22T16:22:36Z</time>
      </trkpt>
      <trkpt lat="49.7135" lon="1.79427">
        <ele>210</ele>
        <time>2023-05-22T16:23:10Z</time>
      </trkpt>
      <trkpt lat="49.7113" lon="1.79589">
        <ele>211</ele>
        <time>2023-05-22T16:23:53Z</time>
      </trkpt>
      <trkpt lat="49.711" lon="1.79615">
        <ele>212</ele>
        <time>2023-05-22T16:23:59Z</time>
      </trkpt>
      <trkpt lat="49.7108" lon="1.7962">
        <ele>212</ele>
        <time>2023-05-22T16:24:03Z</time>
      </trkpt>
      <trkpt lat="49.71057" lon="1.79613">
        <ele>213</ele>
        <time>2023-05-22T16:24:07Z</time>
      </trkpt>
      <trkpt lat="49.71014" lon="1.79581">
        <ele>213</ele>
        <time>2023-05-22T16:24:16Z</time>
      </trkpt>
      <trkpt lat="49.71004" lon="1.79578">
        <ele>213</ele>
        <time>2023-05-22T16:24:17Z</time>
      </trkpt>
      <trkpt lat="49.70996" lon="1.79566">
        <ele>213</ele>
        <time>2023-05-22T16:24:19Z</time>
      </trkpt>
      <trkpt lat="49.70978" lon="1.7957">
        <ele>213</ele>
        <time>2023-05-22T16:24:23Z</time>
      </trkpt>
      <trkpt lat="49.70982" lon="1.79587">
        <ele>213</ele>
        <time>2023-05-22T16:24:25Z</time>
      </trkpt>
      <trkpt lat="49.70977" lon="1.79615">
        <ele>213</ele>
        <time>2023-05-22T16:24:28Z</time>
      </trkpt>
      <trkpt lat="49.70944" lon="1.79737">
        <ele>214</ele>
        <time>2023-05-22T16:24:43Z</time>
      </trkpt>
      <trkpt lat="49.70943" lon="1.79762">
        <ele>214</ele>
        <time>2023-05-22T16:24:46Z</time>
      </trkpt>
      <trkpt lat="49.70906" lon="1.79803">
        <ele>214</ele>
        <time>2023-05-22T16:24:54Z</time>
      </trkpt>
      <trkpt lat="49.70565" lon="1.80104">
        <ele>212</ele>
        <time>2023-05-22T16:26:04Z</time>
      </trkpt>
      <trkpt lat="49.70371" lon="1.80266">
        <ele>214</ele>
        <time>2023-05-22T16:26:43Z</time>
      </trkpt>
      <trkpt lat="49.70198" lon="1.80396">
        <ele>212</ele>
        <time>2023-05-22T16:27:18Z</time>
      </trkpt>
      <trkpt lat="49.70096" lon="1.80495">
        <ele>211</ele>
        <time>2023-05-22T16:27:39Z</time>
      </trkpt>
      <trkpt lat="49.70034" lon="1.80552">
        <ele>212</ele>
        <time>2023-05-22T16:27:52Z</time>
      </trkpt>
      <trkpt lat="49.69961" lon="1.80612">
        <ele>214</ele>
        <time>2023-05-22T16:28:07Z</time>
      </trkpt>
      <trkpt lat="49.69934" lon="1.80627">
        <ele>214</ele>
        <time>2023-05-22T16:28:12Z</time>
      </trkpt>
      <trkpt lat="49.69913" lon="1.80633">
        <ele>214</ele>
        <time>2023-05-22T16:28:16Z</time>
      </trkpt>
      <trkpt lat="49.69892" lon="1.80635">
        <ele>214</ele>
        <time>2023-05-22T16:28:19Z</time>
      </trkpt>
      <trkpt lat="49.69847" lon="1.80635">
        <ele>214</ele>
        <time>2023-05-22T16:28:27Z</time>
      </trkpt>
      <trkpt lat="49.69272" lon="1.80584">
        <ele>214</ele>
        <time>2023-05-22T16:30:10Z</time>
      </trkpt>
      <trkpt lat="49.6922" lon="1.80585">
        <ele>215</ele>
        <time>2023-05-22T16:30:19Z</time>
      </trkpt>
      <trkpt lat="49.69104" lon="1.80605">
        <ele>217</ele>
        <time>2023-05-22T16:30:40Z</time>
      </trkpt>
      <trkpt lat="49.69055" lon="1.80608">
        <ele>217</ele>
        <time>2023-05-22T16:30:48Z</time>
      </trkpt>
      <trkpt lat="49.69029" lon="1.80615">
        <ele>216</ele>
        <time>2023-05-22T16:30:53Z</time>
      </trkpt>
      <trkpt lat="49.69005" lon="1.80631">
        <ele>216</ele>
        <time>2023-05-22T16:30:58Z</time>
      </trkpt>
      <trkpt lat="49.68972" lon="1.80657">
        <ele>216</ele>
        <time>2023-05-22T16:31:04Z</time>
      </trkpt>
      <trkpt lat="49.68946" lon="1.80686">
        <ele>215</ele>
        <time>2023-05-22T16:31:10Z</time>
      </trkpt>
      <trkpt lat="49.68809" lon="1.80892">
        <ele>214</ele>
        <time>2023-05-22T16:31:44Z</time>
      </trkpt>
      <trkpt lat="49.68782" lon="1.80913">
        <ele>215</ele>
        <time>2023-05-22T16:31:50Z</time>
      </trkpt>
      <trkpt lat="49.68735" lon="1.80928">
        <ele>216</ele>
        <time>2023-05-22T16:31:58Z</time>
      </trkpt>
      <trkpt lat="49.68649" lon="1.80938">
        <ele>216</ele>
        <time>2023-05-22T16:32:13Z</time>
      </trkpt>
      <trkpt lat="49.68632" lon="1.80947">
        <ele>216</ele>
        <time>2023-05-22T16:32:17Z</time>
      </trkpt>
      <trkpt lat="49.68609" lon="1.80963">
        <ele>216</ele>
        <time>2023-05-22T16:32:21Z</time>
      </trkpt>
      <trkpt lat="49.68443" lon="1.8109">
        <ele>214</ele>
        <time>2023-05-22T16:32:54Z</time>
      </trkpt>
      <trkpt lat="49.68255" lon="1.81183">
        <ele>216</ele>
        <time>2023-05-22T16:33:29Z</time>
      </trkpt>
      <trkpt lat="49.68063" lon="1.81317">
        <ele>217</ele>
        <time>2023-05-22T16:34:07Z</time>
      </trkpt>
      <trkpt lat="49.68019" lon="1.8134">
        <ele>217</ele>
        <time>2023-05-22T16:34:15Z</time>
      </trkpt>
      <trkpt lat="49.67969" lon="1.81355">
        <ele>217</ele>
        <time>2023-05-22T16:34:24Z</time>
      </trkpt>
      <trkpt lat="49.67909" lon="1.81368">
        <ele>217</ele>
        <time>2023-05-22T16:34:35Z</time>
      </trkpt>
      <trkpt lat="49.67861" lon="1.81392">
        <ele>216</ele>
        <time>2023-05-22T16:34:44Z</time>
      </trkpt>
      <trkpt lat="49.67816" lon="1.81424">
        <ele>215</ele>
        <time>2023-05-22T16:34:53Z</time>
      </trkpt>
      <trkpt lat="49.67783" lon="1.81439">
        <ele>215</ele>
        <time>2023-05-22T16:34:59Z</time>
      </trkpt>
      <trkpt lat="49.67628" lon="1.81478">
        <ele>217</ele>
        <time>2023-05-22T16:35:27Z</time>
      </trkpt>
      <trkpt lat="49.67588" lon="1.81492">
        <ele>217</ele>
        <time>2023-05-22T16:35:34Z</time>
      </trkpt>
      <trkpt lat="49.67563" lon="1.81505">
        <ele>216</ele>
        <time>2023-05-22T16:35:39Z</time>
      </trkpt>
      <trkpt lat="49.67517" lon="1.81541">
        <ele>215</ele>
        <time>2023-05-22T16:35:48Z</time>
      </trkpt>
      <trkpt lat="49.67392" lon="1.81677">
        <ele>214</ele>
        <time>2023-05-22T16:36:15Z</time>
      </trkpt>
      <trkpt lat="49.67294" lon="1.81775">
        <ele>214</ele>
        <time>2023-05-22T16:36:36Z</time>
      </trkpt>
      <trkpt lat="49.67054" lon="1.82033">
        <ele>215</ele>
        <time>2023-05-22T16:37:28Z</time>
      </trkpt>
      <trkpt lat="49.66976" lon="1.82113">
        <ele>214</ele>
        <time>2023-05-22T16:37:44Z</time>
      </trkpt>
      <trkpt lat="49.66937" lon="1.8215">
        <ele>214</ele>
        <time>2023-05-22T16:37:53Z</time>
      </trkpt>
      <trkpt lat="49.66911" lon="1.82176">
        <ele>214</ele>
        <time>2023-05-22T16:37:58Z</time>
      </trkpt>
      <trkpt lat="49.66878" lon="1.82056">
        <ele>215</ele>
        <time>2023-05-22T16:38:13Z</time>
      </trkpt>
      <trkpt lat="49.66817" lon="1.81797">
        <ele>214</ele>
        <time>2023-05-22T16:38:45Z</time>
      </trkpt>
      <trkpt lat="49.66848" lon="1.81657">
        <ele>217</ele>
        <time>2023-05-22T16:39:02Z</time>
      </trkpt>
      <trkpt lat="49.66874" lon="1.81553">
        <ele>216</ele>
        <time>2023-05-22T16:39:15Z</time>
      </trkpt>
      <trkpt lat="49.66903" lon="1.81415">
        <ele>215</ele>
        <time>2023-05-22T16:39:31Z</time>
      </trkpt>
      <trkpt lat="49.66791" lon="1.81233">
        <ele>215</ele>
        <time>2023-05-22T16:40:00Z</time>
      </trkpt>
      <trkpt lat="49.66716" lon="1.81096">
        <ele>215</ele>
        <time>2023-05-22T16:40:21Z</time>
      </trkpt>
      <trkpt lat="49.66672" lon="1.8102">
        <ele>213</ele>
        <time>2023-05-22T16:40:33Z</time>
      </trkpt>
      <trkpt lat="49.66695" lon="1.80987">
        <ele>213</ele>
        <time>2023-05-22T16:40:38Z</time>
      </trkpt>
      <trkpt lat="49.6677" lon="1.80899">
        <ele>215</ele>
        <time>2023-05-22T16:40:55Z</time>
      </trkpt>
      <trkpt lat="49.6684" lon="1.80799">
        <ele>216</ele>
        <time>2023-05-22T16:41:12Z</time>
      </trkpt>
      <trkpt lat="49.66896" lon="1.80737">
        <ele>216</ele>
        <time>2023-05-22T16:41:24Z</time>
      </trkpt>
      <trkpt lat="49.67073" lon="1.80528">
        <ele>217</ele>
        <time>2023-05-22T16:42:04Z</time>
      </trkpt>
      <trkpt lat="49.67134" lon="1.80466">
        <ele>217</ele>
        <time>2023-05-22T16:42:17Z</time>
      </trkpt>
      <trkpt lat="49.67166" lon="1.80453">
        <ele>217</ele>
        <time>2023-05-22T16:42:23Z</time>
      </trkpt>
      <trkpt lat="49.67188" lon="1.80436">
        <ele>217</ele>
        <time>2023-05-22T16:42:27Z</time>
      </trkpt>
      <trkpt lat="49.67354" lon="1.80275">
        <ele>217</ele>
        <time>2023-05-22T16:43:02Z</time>
      </trkpt>
      <trkpt lat="49.67401" lon="1.80209">
        <ele>218</ele>
        <time>2023-05-22T16:43:13Z</time>
      </trkpt>
      <trkpt lat="49.6775" lon="1.795">
        <ele>219</ele>
        <time>2023-05-22T16:44:56Z</time>
      </trkpt>
      <trkpt lat="49.68212" lon="1.78541">
        <ele>216</ele>
        <time>2023-05-22T16:47:14Z</time>
      </trkpt>
      <trkpt lat="49.68514" lon="1.77906">
        <ele>218</ele>
        <time>2023-05-22T16:48:44Z</time>
      </trkpt>
      <trkpt lat="49.68665" lon="1.77592">
        <ele>220</ele>
        <time>2023-05-22T16:49:29Z</time>
      </trkpt>
      <trkpt lat="49.68685" lon="1.77553">
        <ele>220</ele>
        <time>2023-05-22T16:49:35Z</time>
      </trkpt>
      <trkpt lat="49.68891" lon="1.77122">
        <ele>216</ele>
        <time>2023-05-22T16:50:37Z</time>
      </trkpt>
      <trkpt lat="49.69037" lon="1.76813">
        <ele>216</ele>
        <time>2023-05-22T16:51:21Z</time>
      </trkpt>
      <trkpt lat="49.69072" lon="1.76744">
        <ele>215</ele>
        <time>2023-05-22T16:51:31Z</time>
      </trkpt>
      <trkpt lat="49.69157" lon="1.76578">
        <ele>212</ele>
        <time>2023-05-22T16:51:55Z</time>
      </trkpt>
      <trkpt lat="49.69169" lon="1.76561">
        <ele>211</ele>
        <time>2023-05-22T16:51:58Z</time>
      </trkpt>
      <trkpt lat="49.69151" lon="1.7655">
        <ele>211</ele>
        <time>2023-05-22T16:52:02Z</time>
      </trkpt>
      <trkpt lat="49.69135" lon="1.76553">
        <ele>211</ele>
        <time>2023-05-22T16:52:04Z</time>
      </trkpt>
      <trkpt lat="49.69036" lon="1.76584">
        <ele>212</ele>
        <time>2023-05-22T16:52:22Z</time>
      </trkpt>
      <trkpt lat="49.69016" lon="1.76588">
        <ele>212</ele>
        <time>2023-05-22T16:52:26Z</time>
      </trkpt>
      <trkpt lat="49.68993" lon="1.76589">
        <ele>212</ele>
        <time>2023-05-22T16:52:30Z</time>
      </trkpt>
      <trkpt lat="49.68617" lon="1.76549">
        <ele>214</ele>
        <time>2023-05-22T16:53:37Z</time>
      </trkpt>
      <trkpt lat="49.68578" lon="1.76551">
        <ele>214</ele>
        <time>2023-05-22T16:53:44Z</time>
      </trkpt>
      <trkpt lat="49.68552" lon="1.76557">
        <ele>213</ele>
        <time>2023-05-22T16:53:49Z</time>
      </trkpt>
      <trkpt lat="49.68423" lon="1.76611">
        <ele>214</ele>
        <time>2023-05-22T16:54:13Z</time>
      </trkpt>
      <trkpt lat="49.6839" lon="1.76617">
        <ele>214</ele>
        <time>2023-05-22T16:54:19Z</time>
      </trkpt>
      <trkpt lat="49.68323" lon="1.7661">
        <ele>215</ele>
        <time>2023-05-22T16:54:30Z</time>
      </trkpt>
      <trkpt lat="49.68287" lon="1.7661">
        <ele>216</ele>
        <time>2023-05-22T16:54:37Z</time>
      </trkpt>
      <trkpt lat="49.68165" lon="1.76613">
        <ele>217</ele>
        <time>2023-05-22T16:54:59Z</time>
      </trkpt>
      <trkpt lat="49.67943" lon="1.76615">
        <ele>218</ele>
        <time>2023-05-22T16:55:38Z</time>
      </trkpt>
      <trkpt lat="49.67903" lon="1.76598">
        <ele>218</ele>
        <time>2023-05-22T16:55:45Z</time>
      </trkpt>
      <trkpt lat="49.67641" lon="1.76366">
        <ele>216</ele>
        <time>2023-05-22T16:56:39Z</time>
      </trkpt>
      <trkpt lat="49.67544" lon="1.76283">
        <ele>215</ele>
        <time>2023-05-22T16:56:59Z</time>
      </trkpt>
      <trkpt lat="49.67494" lon="1.76227">
        <ele>214</ele>
        <time>2023-05-22T16:57:10Z</time>
      </trkpt>
      <trkpt lat="49.674" lon="1.76113">
        <ele>209</ele>
        <time>2023-05-22T16:57:31Z</time>
      </trkpt>
      <trkpt lat="49.67383" lon="1.76108">
        <ele>210</ele>
        <time>2023-05-22T16:57:34Z</time>
      </trkpt>
      <trkpt lat="49.67204" lon="1.76111">
        <ele>215</ele>
        <time>2023-05-22T16:58:06Z</time>
      </trkpt>
      <trkpt lat="49.67118" lon="1.76106">
        <ele>216</ele>
        <time>2023-05-22T16:58:21Z</time>
      </trkpt>
      <trkpt lat="49.67023" lon="1.76089">
        <ele>218</ele>
        <time>2023-05-22T16:58:38Z</time>
      </trkpt>
      <trkpt lat="49.66676" lon="1.76011">
        <ele>218</ele>
        <time>2023-05-22T16:59:41Z</time>
      </trkpt>
      <trkpt lat="49.66333" lon="1.75917">
        <ele>218</ele>
        <time>2023-05-22T17:00:43Z</time>
      </trkpt>
      <trkpt lat="49.6622" lon="1.75877">
        <ele>218</ele>
        <time>2023-05-22T17:01:03Z</time>
      </trkpt>
      <trkpt lat="49.66116" lon="1.75848">
        <ele>218</ele>
        <time>2023-05-22T17:01:22Z</time>
      </trkpt>
      <trkpt lat="49.66044" lon="1.75814">
        <ele>218</ele>
        <time>2023-05-22T17:01:36Z</time>
      </trkpt>
      <trkpt lat="49.66006" lon="1.75785">
        <ele>217</ele>
        <time>2023-05-22T17:01:43Z</time>
      </trkpt>
      <trkpt lat="49.65991" lon="1.75771">
        <ele>217</ele>
        <time>2023-05-22T17:01:46Z</time>
      </trkpt>
      <trkpt lat="49.6594" lon="1.75712">
        <ele>217</ele>
        <time>2023-05-22T17:01:58Z</time>
      </trkpt>
      <trkpt lat="49.65923" lon="1.75688">
        <ele>218</ele>
        <time>2023-05-22T17:02:02Z</time>
      </trkpt>
      <trkpt lat="49.65751" lon="1.75316">
        <ele>218</ele>
        <time>2023-05-22T17:02:54Z</time>
      </trkpt>
      <trkpt lat="49.65728" lon="1.75347">
        <ele>218</ele>
        <time>2023-05-22T17:03:00Z</time>
      </trkpt>
      <trkpt lat="49.65708" lon="1.75379">
        <ele>219</ele>
        <time>2023-05-22T17:03:05Z</time>
      </trkpt>
      <trkpt lat="49.65694" lon="1.75399">
        <ele>219</ele>
        <time>2023-05-22T17:03:08Z</time>
      </trkpt>
      <trkpt lat="49.65683" lon="1.75402">
        <ele>219</ele>
        <time>2023-05-22T17:03:10Z</time>
      </trkpt>
      <trkpt lat="49.65664" lon="1.75398">
        <ele>219</ele>
        <time>2023-05-22T17:03:14Z</time>
      </trkpt>
      <trkpt lat="49.656" lon="1.75338">
        <ele>219</ele>
        <time>2023-05-22T17:03:27Z</time>
      </trkpt>
      <trkpt lat="49.65577" lon="1.75309">
        <ele>219</ele>
        <time>2023-05-22T17:03:32Z</time>
      </trkpt>
      <trkpt lat="49.65559" lon="1.75294">
        <ele>219</ele>
        <time>2023-05-22T17:03:36Z</time>
      </trkpt>
      <trkpt lat="49.65547" lon="1.75289">
        <ele>219</ele>
        <time>2023-05-22T17:03:38Z</time>
      </trkpt>
      <trkpt lat="49.65522" lon="1.75291">
        <ele>220</ele>
        <time>2023-05-22T17:03:43Z</time>
      </trkpt>
      <trkpt lat="49.65464" lon="1.753">
        <ele>222</ele>
        <time>2023-05-22T17:03:53Z</time>
      </trkpt>
      <trkpt lat="49.65443" lon="1.75301">
        <ele>222</ele>
        <time>2023-05-22T17:03:57Z</time>
      </trkpt>
      <trkpt lat="49.65428" lon="1.75308">
        <ele>223</ele>
        <time>2023-05-22T17:04:00Z</time>
      </trkpt>
      <trkpt lat="49.65408" lon="1.75327">
        <ele>224</ele>
        <time>2023-05-22T17:04:04Z</time>
      </trkpt>
      <trkpt lat="49.6538" lon="1.75362">
        <ele>224</ele>
        <time>2023-05-22T17:04:10Z</time>
      </trkpt>
      <trkpt lat="49.65364" lon="1.7537">
        <ele>225</ele>
        <time>2023-05-22T17:04:13Z</time>
      </trkpt>
      <trkpt lat="49.65259" lon="1.75381">
        <ele>226</ele>
        <time>2023-05-22T17:04:32Z</time>
      </trkpt>
      <trkpt lat="49.65184" lon="1.75395">
        <ele>224</ele>
        <time>2023-05-22T17:04:45Z</time>
      </trkpt>
      <trkpt lat="49.65164" lon="1.75405">
        <ele>223</ele>
        <time>2023-05-22T17:04:49Z</time>
      </trkpt>
      <trkpt lat="49.65132" lon="1.75414">
        <ele>224</ele>
        <time>2023-05-22T17:04:55Z</time>
      </trkpt>
      <trkpt lat="49.65111" lon="1.75427">
        <ele>224</ele>
        <time>2023-05-22T17:04:59Z</time>
      </trkpt>
      <trkpt lat="49.65038" lon="1.75488">
        <ele>224</ele>
        <time>2023-05-22T17:05:14Z</time>
      </trkpt>
      <trkpt lat="49.65021" lon="1.75497">
        <ele>224</ele>
        <time>2023-05-22T17:05:17Z</time>
      </trkpt>
      <trkpt lat="49.65004" lon="1.75502">
        <ele>224</ele>
        <time>2023-05-22T17:05:20Z</time>
      </trkpt>
      <trkpt lat="49.64991" lon="1.75501">
        <ele>224</ele>
        <time>2023-05-22T17:05:22Z</time>
      </trkpt>
      <trkpt lat="49.64924" lon="1.75472">
        <ele>223</ele>
        <time>2023-05-22T17:05:35Z</time>
      </trkpt>
      <trkpt lat="49.64904" lon="1.75465">
        <ele>222</ele>
        <time>2023-05-22T17:05:38Z</time>
      </trkpt>
      <trkpt lat="49.64861" lon="1.75456">
        <ele>221</ele>
        <time>2023-05-22T17:05:46Z</time>
      </trkpt>
      <trkpt lat="49.64819" lon="1.75442">
        <ele>221</ele>
        <time>2023-05-22T17:05:54Z</time>
      </trkpt>
      <trkpt lat="49.6479" lon="1.7543">
        <ele>221</ele>
        <time>2023-05-22T17:05:59Z</time>
      </trkpt>
      <trkpt lat="49.64772" lon="1.75432">
        <ele>222</ele>
        <time>2023-05-22T17:06:02Z</time>
      </trkpt>
      <trkpt lat="49.6473" lon="1.75448">
        <ele>222</ele>
        <time>2023-05-22T17:06:10Z</time>
      </trkpt>
      <trkpt lat="49.64663" lon="1.75491">
        <ele>224</ele>
        <time>2023-05-22T17:06:23Z</time>
      </trkpt>
      <trkpt lat="49.64648" lon="1.75506">
        <ele>225</ele>
        <time>2023-05-22T17:06:26Z</time>
      </trkpt>
      <trkpt lat="49.64633" lon="1.75518">
        <ele>225</ele>
        <time>2023-05-22T17:06:29Z</time>
      </trkpt>
      <trkpt lat="49.64625" lon="1.75521">
        <ele>225</ele>
        <time>2023-05-22T17:06:30Z</time>
      </trkpt>
      <trkpt lat="49.64533" lon="1.75534">
        <ele>225</ele>
        <time>2023-05-22T17:06:47Z</time>
      </trkpt>
      <trkpt lat="49.64451" lon="1.75542">
        <ele>224</ele>
        <time>2023-05-22T17:07:01Z</time>
      </trkpt>
      <trkpt lat="49.64422" lon="1.75552">
        <ele>224</ele>
        <time>2023-05-22T17:07:07Z</time>
      </trkpt>
      <trkpt lat="49.64387" lon="1.75573">
        <ele>223</ele>
        <time>2023-05-22T17:07:13Z</time>
      </trkpt>
      <trkpt lat="49.64268" lon="1.75652">
        <ele>221</ele>
        <time>2023-05-22T17:07:36Z</time>
      </trkpt>
      <trkpt lat="49.64249" lon="1.75667">
        <ele>221</ele>
        <time>2023-05-22T17:07:40Z</time>
      </trkpt>
      <trkpt lat="49.64225" lon="1.75695">
        <ele>220</ele>
        <time>2023-05-22T17:07:46Z</time>
      </trkpt>
      <trkpt lat="49.64202" lon="1.75715">
        <ele>220</ele>
        <time>2023-05-22T17:07:50Z</time>
      </trkpt>
      <trkpt lat="49.64186" lon="1.75724">
        <ele>220</ele>
        <time>2023-05-22T17:07:53Z</time>
      </trkpt>
      <trkpt lat="49.64171" lon="1.75725">
        <ele>220</ele>
        <time>2023-05-22T17:07:56Z</time>
      </trkpt>
      <trkpt lat="49.64133" lon="1.75714">
        <ele>220</ele>
        <time>2023-05-22T17:08:03Z</time>
      </trkpt>
      <trkpt lat="49.64115" lon="1.75705">
        <ele>219</ele>
        <time>2023-05-22T17:08:06Z</time>
      </trkpt>
      <trkpt lat="49.64059" lon="1.75654">
        <ele>218</ele>
        <time>2023-05-22T17:08:18Z</time>
      </trkpt>
      <trkpt lat="49.64035" lon="1.75645">
        <ele>218</ele>
        <time>2023-05-22T17:08:22Z</time>
      </trkpt>
      <trkpt lat="49.64013" lon="1.75645">
        <ele>218</ele>
        <time>2023-05-22T17:08:26Z</time>
      </trkpt>
      <trkpt lat="49.63952" lon="1.75651">
        <ele>217</ele>
        <time>2023-05-22T17:08:37Z</time>
      </trkpt>
      <trkpt lat="49.63898" lon="1.75673">
        <ele>217</ele>
        <time>2023-05-22T17:08:47Z</time>
      </trkpt>
      <trkpt lat="49.63829" lon="1.75709">
        <ele>218</ele>
        <time>2023-05-22T17:09:00Z</time>
      </trkpt>
      <trkpt lat="49.63784" lon="1.75729">
        <ele>218</ele>
        <time>2023-05-22T17:09:08Z</time>
      </trkpt>
      <trkpt lat="49.63695" lon="1.75762">
        <ele>218</ele>
        <time>2023-05-22T17:09:25Z</time>
      </trkpt>
      <trkpt lat="49.63649" lon="1.75776">
        <ele>218</ele>
        <time>2023-05-22T17:09:33Z</time>
      </trkpt>
      <trkpt lat="49.63606" lon="1.75785">
        <ele>216</ele>
        <time>2023-05-22T17:09:41Z</time>
      </trkpt>
      <trkpt lat="49.63577" lon="1.75789">
        <ele>215</ele>
        <time>2023-05-22T17:09:46Z</time>
      </trkpt>
      <trkpt lat="49.63525" lon="1.75788">
        <ele>215</ele>
        <time>2023-05-22T17:09:55Z</time>
      </trkpt>
      <trkpt lat="49.63436" lon="1.7579">
        <ele>214</ele>
        <time>2023-05-22T17:10:11Z</time>
      </trkpt>
      <trkpt lat="49.63395" lon="1.75794">
        <ele>214</ele>
        <time>2023-05-22T17:10:18Z</time>
      </trkpt>
      <trkpt lat="49.63409" lon="1.75756">
        <ele>213</ele>
        <time>2023-05-22T17:10:23Z</time>
      </trkpt>
      <trkpt lat="49.63472" lon="1.75627">
        <ele>214</ele>
        <time>2023-05-22T17:10:42Z</time>
      </trkpt>
      <trkpt lat="49.6351" lon="1.7558">
        <ele>214</ele>
        <time>2023-05-22T17:10:50Z</time>
      </trkpt>
      <trkpt lat="49.63704" lon="1.754">
        <ele>215</ele>
        <time>2023-05-22T17:11:31Z</time>
      </trkpt>
      <trkpt lat="49.63746" lon="1.75366">
        <ele>214</ele>
        <time>2023-05-22T17:11:39Z</time>
      </trkpt>
      <trkpt lat="49.63836" lon="1.75284">
        <ele>214</ele>
        <time>2023-05-22T17:11:58Z</time>
      </trkpt>
      <trkpt lat="49.64017" lon="1.7511">
        <ele>218</ele>
        <time>2023-05-22T17:12:36Z</time>
      </trkpt>
      <trkpt lat="49.64079" lon="1.75033">
        <ele>220</ele>
        <time>2023-05-22T17:12:50Z</time>
      </trkpt>
      <trkpt lat="49.64138" lon="1.74956">
        <ele>221</ele>
        <time>2023-05-22T17:13:04Z</time>
      </trkpt>
      <trkpt lat="49.64199" lon="1.7487">
        <ele>222</ele>
        <time>2023-05-22T17:13:18Z</time>
      </trkpt>
      <trkpt lat="49.64264" lon="1.74771">
        <ele>222</ele>
        <time>2023-05-22T17:13:35Z</time>
      </trkpt>
      <trkpt lat="49.6432" lon="1.74666">
        <ele>222</ele>
        <time>2023-05-22T17:13:50Z</time>
      </trkpt>
      <trkpt lat="49.64359" lon="1.74576">
        <ele>221</ele>
        <time>2023-05-22T17:14:03Z</time>
      </trkpt>
      <trkpt lat="49.64449" lon="1.74357">
        <ele>220</ele>
        <time>2023-05-22T17:14:33Z</time>
      </trkpt>
      <trkpt lat="49.64563" lon="1.74121">
        <ele>219</ele>
        <time>2023-05-22T17:15:07Z</time>
      </trkpt>
      <trkpt lat="49.64631" lon="1.73945">
        <ele>220</ele>
        <time>2023-05-22T17:15:30Z</time>
      </trkpt>
      <trkpt lat="49.64673" lon="1.73825">
        <ele>221</ele>
        <time>2023-05-22T17:15:46Z</time>
      </trkpt>
      <trkpt lat="49.64724" lon="1.73727">
        <ele>221</ele>
        <time>2023-05-22T17:16:00Z</time>
      </trkpt>
      <trkpt lat="49.64797" lon="1.73596">
        <ele>222</ele>
        <time>2023-05-22T17:16:20Z</time>
      </trkpt>
      <trkpt lat="49.64844" lon="1.73506">
        <ele>223</ele>
        <time>2023-05-22T17:16:34Z</time>
      </trkpt>
      <trkpt lat="49.64866" lon="1.73435">
        <ele>223</ele>
        <time>2023-05-22T17:16:43Z</time>
      </trkpt>
      <trkpt lat="49.64906" lon="1.73335">
        <ele>221</ele>
        <time>2023-05-22T17:16:56Z</time>
      </trkpt>
      <trkpt lat="49.64979" lon="1.73135">
        <ele>225</ele>
        <time>2023-05-22T17:17:23Z</time>
      </trkpt>
      <trkpt lat="49.64985" lon="1.73121">
        <ele>225</ele>
        <time>2023-05-22T17:17:25Z</time>
      </trkpt>
    </trkseg>
  </trk>
</gpx>